PWSweather.com
Personal Weather Stations
Station Observations
ALOHA852
Aloha, OR

Aloha, OR

Lat: 45.476667, Lon: -122.894722

Elevation: 278

Station Type: Ambient Weather

Latest ConditionsUpdated 10:26:00 AM PDT Thursday, Oct 30, 2014
Currently Today's Max Today's Min Today's Average
Temperature 57.6°F14.2°C 57.7°F14.3°C 54.1°F12.3°C 55.3°F12.9°C
Dew Point 57.3°F14.1°C 57.5°F14.2°C 53.9°F12.2°C 55.0°F12.8°C
Winds 0.4 mph SE0.6 kmh SE 5.4 mph W8.7 kmh W - 0.6 mph 1.0 kmh
Wind Gusts 1.6 mph2.6 kmh 8.3 mph13.4 kmh - -
Humidity 99% 99% 99% 99%
Pressure 29.44 in997.0 mb 29.60 in1002.4 mb 29.44 in997.0 mb -
Precipitation - 0.06 in1.5 mm - -
Hour Temp Dew Point Humidity Winds Wind Gusts Pressure Precip Precip Rate Daily Precip Total
10:26 AM 57.6°F14.2°C 57.3°F14.1°C 99% 0.4 mph SE0.6 kmh SE 1.6 mph2.6 kmh 29.44 in997.0 mb 0.00 in0.0 mm 0.00 in/hr0.0 mm/hr 0.06 in1.5 mm
10:25 AM 57.4°F14.1°C 57.1°F13.9°C 99% 0.4 mph SE0.6 kmh SE 1.6 mph2.6 kmh 29.44 in997.0 mb 0.00 in0.0 mm 0.00 in/hr0.0 mm/hr 0.06 in1.5 mm
10:24 AM 57.7°F14.3°C 57.5°F14.2°C 99% 0.3 mph SE0.5 kmh SE 1.6 mph2.6 kmh 29.44 in997.0 mb 0.00 in0.0 mm 0.00 in/hr0.0 mm/hr 0.06 in1.5 mm
10:23 AM 57.7°F14.3°C 57.5°F14.2°C 99% 0.4 mph SE0.6 kmh SE 1.6 mph2.6 kmh 29.44 in997.0 mb 0.00 in0.0 mm 0.00 in/hr0.0 mm/hr 0.06 in1.5 mm
10:22 AM 57.6°F14.2°C 57.3°F14.1°C 99% 0.7 mph SE1.1 kmh SE 3.8 mph6.1 kmh 29.44 in997.0 mb 0.00 in0.0 mm 0.00 in/hr0.0 mm/hr 0.06 in1.5 mm
10:21 AM 57.6°F14.2°C 57.3°F14.1°C 99% 0.9 mph SE1.4 kmh SE 3.8 mph6.1 kmh 29.44 in997.0 mb 0.00 in0.0 mm 0.00 in/hr0.0 mm/hr 0.06 in1.5 mm
10:20 AM 57.4°F14.1°C 57.1°F13.9°C 99% 1.0 mph SE1.6 kmh SE 3.8 mph6.1 kmh 29.44 in997.0 mb 0.00 in0.0 mm 0.00 in/hr0.0 mm/hr 0.06 in1.5 mm
10:19 AM 57.7°F14.3°C 57.5°F14.2°C 99% 1.2 mph SE1.9 kmh SE 3.8 mph6.1 kmh 29.44 in997.0 mb 0.00 in0.0 mm 0.00 in/hr0.0 mm/hr 0.06 in1.5 mm
10:18 AM 57.4°F14.1°C 57.1°F13.9°C 99% 1.5 mph SE2.4 kmh SE 3.8 mph6.1 kmh 29.45 in997.3 mb 0.00 in0.0 mm 0.00 in/hr0.0 mm/hr 0.06 in1.5 mm
10:17 AM 57.4°F14.1°C 57.1°F13.9°C 99% 1.6 mph SE2.6 kmh SE 3.8 mph6.1 kmh 29.45 in997.3 mb 0.00 in0.0 mm 0.00 in/hr0.0 mm/hr 0.06 in1.5 mm
10:16 AM 57.4°F14.1°C 57.1°F13.9°C 99% 1.6 mph SE2.6 kmh SE 3.8 mph6.1 kmh 29.45 in997.3 mb 0.00 in0.0 mm 0.00 in/hr0.0 mm/hr 0.06 in1.5 mm
10:15 AM 57.4°F14.1°C 57.1°F13.9°C 99% 1.6 mph SE2.6 kmh SE 3.8 mph6.1 kmh 29.45 in997.3 mb 0.00 in0.0 mm 0.00 in/hr0.0 mm/hr 0.06 in1.5 mm
10:14 AM 57.4°F14.1°C 57.1°F13.9°C 99% 1.5 mph SE2.4 kmh SE 3.8 mph6.1 kmh 29.45 in997.3 mb 0.00 in0.0 mm 0.00 in/hr0.0 mm/hr 0.06 in1.5 mm
10:13 AM 57.4°F14.1°C 57.1°F13.9°C 99% 1.4 mph SE2.3 kmh SE 3.8 mph6.1 kmh 29.45 in997.3 mb 0.00 in0.0 mm 0.00 in/hr0.0 mm/hr 0.06 in1.5 mm
10:12 AM 57.2°F14.0°C 56.9°F13.8°C 99% 1.1 mph SE1.8 kmh SE 3.8 mph6.1 kmh 29.45 in997.3 mb 0.00 in0.0 mm 0.00 in/hr0.0 mm/hr 0.06 in1.5 mm
10:11 AM 57.4°F14.1°C 57.1°F13.9°C 99% 0.8 mph SE1.3 kmh SE 3.1 mph5.0 kmh 29.45 in997.3 mb 0.00 in0.0 mm 0.00 in/hr0.0 mm/hr 0.06 in1.5 mm
10:10 AM 57.6°F14.2°C 57.3°F14.1°C 99% 0.7 mph SE1.1 kmh SE 3.1 mph5.0 kmh 29.45 in997.3 mb 0.00 in0.0 mm 0.00 in/hr0.0 mm/hr 0.06 in1.5 mm
10:09 AM 57.0°F13.9°C 56.8°F13.8°C 99% 0.4 mph SE0.6 kmh SE 2.2 mph3.5 kmh 29.45 in997.3 mb 0.00 in0.0 mm 0.00 in/hr0.0 mm/hr 0.06 in1.5 mm
10:08 AM 56.8°F13.8°C 56.6°F13.7°C 99% 0.2 mph SE0.3 kmh SE 2.2 mph3.5 kmh 29.45 in997.3 mb 0.00 in0.0 mm 0.00 in/hr0.0 mm/hr 0.06 in1.5 mm
10:07 AM 57.0°F13.9°C 56.8°F13.8°C 99% Calm Calm 0.7 mph1.1 kmh 29.45 in997.3 mb 0.00 in0.0 mm 0.00 in/hr0.0 mm/hr 0.06 in1.5 mm
10:06 AM 56.8°F13.8°C 56.6°F13.7°C 99% Calm Calm -- 29.45 in997.3 mb 0.00 in0.0 mm 0.00 in/hr0.0 mm/hr 0.06 in1.5 mm
10:05 AM 57.0°F13.9°C 56.8°F13.8°C 99% Calm Calm -- 29.45 in997.3 mb 0.00 in0.0 mm 0.00 in/hr0.0 mm/hr 0.06 in1.5 mm
10:04 AM 56.7°F13.7°C 56.4°F13.6°C 99% Calm Calm -- 29.45 in997.3 mb 0.00 in0.0 mm 0.00 in/hr0.0 mm/hr 0.06 in1.5 mm
10:03 AM 56.8°F13.8°C 56.6°F13.7°C 99% Calm Calm -- 29.44 in997.0 mb 0.00 in0.0 mm 0.00 in/hr0.0 mm/hr 0.06 in1.5 mm
10:02 AM 56.7°F13.7°C 56.4°F13.6°C 99% Calm Calm -- 29.44 in997.0 mb 0.00 in0.0 mm 0.00 in/hr0.0 mm/hr 0.06 in1.5 mm
10:01 AM 56.5°F13.6°C 56.2°F13.4°C 99% Calm Calm -- 29.44 in997.0 mb 0.00 in0.0 mm 0.00 in/hr0.0 mm/hr 0.06 in1.5 mm
10:00 AM 56.3°F13.5°C 56.0°F13.3°C 99% Calm Calm -- 29.44 in997.0 mb 0.00 in0.0 mm 0.00 in/hr0.0 mm/hr 0.06 in1.5 mm
09:59 AM 56.3°F13.5°C 56.0°F13.3°C 99% 0.3 mph SE0.5 kmh SE 3.8 mph6.1 kmh 29.44 in997.0 mb 0.00 in0.0 mm 0.00 in/hr0.0 mm/hr 0.06 in1.5 mm
09:58 AM 56.3°F13.5°C 56.0°F13.3°C 99% 0.5 mph SE0.8 kmh SE 3.8 mph6.1 kmh 29.44 in997.0 mb 0.00 in0.0 mm 0.00 in/hr0.0 mm/hr 0.06 in1.5 mm
09:57 AM 56.3°F13.5°C 56.0°F13.3°C 99% 0.8 mph SE1.3 kmh SE 3.8 mph6.1 kmh 29.44 in997.0 mb 0.00 in0.0 mm 0.00 in/hr0.0 mm/hr 0.06 in1.5 mm
09:56 AM 56.5°F13.6°C 56.2°F13.4°C 99% 0.9 mph SE1.4 kmh SE 3.8 mph6.1 kmh 29.44 in997.0 mb 0.00 in0.0 mm 0.00 in/hr0.0 mm/hr 0.06 in1.5 mm
09:55 AM 56.3°F13.5°C 56.0°F13.3°C 99% 0.9 mph SE1.4 kmh SE 3.8 mph6.1 kmh 29.44 in997.0 mb 0.00 in0.0 mm 0.00 in/hr0.0 mm/hr 0.06 in1.5 mm
09:54 AM 56.3°F13.5°C 56.0°F13.3°C 99% 0.9 mph SE1.4 kmh SE 3.8 mph6.1 kmh 29.44 in997.0 mb 0.00 in0.0 mm 0.00 in/hr0.0 mm/hr 0.06 in1.5 mm
09:53 AM 56.1°F13.4°C 55.9°F13.3°C 99% 0.9 mph SE1.4 kmh SE 3.8 mph6.1 kmh 29.44 in997.0 mb 0.00 in0.0 mm 0.00 in/hr0.0 mm/hr 0.06 in1.5 mm
09:52 AM 55.8°F13.2°C 55.5°F13.1°C 99% 0.9 mph SE1.4 kmh SE 3.8 mph6.1 kmh 29.45 in997.3 mb 0.00 in0.0 mm 0.00 in/hr0.0 mm/hr 0.06 in1.5 mm
09:51 AM 55.9°F13.3°C 55.7°F13.2°C 99% 0.9 mph SE1.4 kmh SE 3.8 mph6.1 kmh 29.45 in997.3 mb 0.00 in0.0 mm 0.00 in/hr0.0 mm/hr 0.06 in1.5 mm
09:50 AM 55.9°F13.3°C 55.7°F13.2°C 99% 0.9 mph SE1.4 kmh SE 3.8 mph6.1 kmh 29.45 in997.3 mb 0.00 in0.0 mm 0.00 in/hr0.0 mm/hr 0.06 in1.5 mm
09:49 AM 55.9°F13.3°C 55.7°F13.2°C 99% 0.6 mph SE1.0 kmh SE 3.1 mph5.0 kmh 29.45 in997.3 mb 0.00 in0.0 mm 0.00 in/hr0.0 mm/hr 0.06 in1.5 mm
09:48 AM 55.8°F13.2°C 55.5°F13.1°C 99% 0.3 mph SE0.5 kmh SE 3.1 mph5.0 kmh 29.45 in997.3 mb 0.00 in0.0 mm 0.00 in/hr0.0 mm/hr 0.06 in1.5 mm
09:47 AM 55.9°F13.3°C 55.7°F13.2°C 99% Calm Calm 2.2 mph3.5 kmh 29.45 in997.3 mb 0.00 in0.0 mm 0.00 in/hr0.0 mm/hr 0.06 in1.5 mm
09:46 AM 55.8°F13.2°C 55.5°F13.1°C 99% 0.1 mph SE0.2 kmh SE 0.7 mph1.1 kmh 29.45 in997.3 mb 0.00 in0.0 mm 0.00 in/hr0.0 mm/hr 0.06 in1.5 mm
09:45 AM 55.9°F13.3°C 55.7°F13.2°C 99% 0.1 mph SE0.2 kmh SE 0.7 mph1.1 kmh 29.45 in997.3 mb 0.00 in0.0 mm 0.00 in/hr0.0 mm/hr 0.06 in1.5 mm
09:44 AM 55.8°F13.2°C 55.5°F13.1°C 99% 0.1 mph SE0.2 kmh SE 0.7 mph1.1 kmh 29.45 in997.3 mb 0.00 in0.0 mm 0.00 in/hr0.0 mm/hr 0.06 in1.5 mm
09:43 AM 55.8°F13.2°C 55.5°F13.1°C 99% 0.1 mph SE0.2 kmh SE 0.7 mph1.1 kmh 29.45 in997.3 mb 0.00 in0.0 mm 0.00 in/hr0.0 mm/hr 0.06 in1.5 mm
09:42 AM 55.9°F13.3°C 55.7°F13.2°C 99% 0.1 mph SE0.2 kmh SE 0.7 mph1.1 kmh 29.45 in997.3 mb 0.00 in0.0 mm 0.00 in/hr0.0 mm/hr 0.06 in1.5 mm
09:41 AM 56.3°F13.5°C 56.0°F13.3°C 99% 0.1 mph SE0.2 kmh SE 0.7 mph1.1 kmh 29.45 in997.3 mb 0.00 in0.0 mm 0.00 in/hr0.0 mm/hr 0.06 in1.5 mm
09:40 AM 55.6°F13.1°C 55.3°F12.9°C 99% 0.1 mph SE0.2 kmh SE 0.7 mph1.1 kmh 29.45 in997.3 mb 0.00 in0.0 mm 0.00 in/hr0.0 mm/hr 0.06 in1.5 mm
09:39 AM 55.9°F13.3°C 55.7°F13.2°C 99% 0.1 mph SE0.2 kmh SE 0.7 mph1.1 kmh 29.45 in997.3 mb 0.00 in0.0 mm 0.00 in/hr0.0 mm/hr 0.06 in1.5 mm
09:38 AM 55.9°F13.3°C 55.7°F13.2°C 99% 0.1 mph SE0.2 kmh SE 0.7 mph1.1 kmh 29.45 in997.3 mb 0.00 in0.0 mm 0.00 in/hr0.0 mm/hr 0.06 in1.5 mm
09:37 AM 55.8°F13.2°C 55.5°F13.1°C 99% 0.1 mph SE0.2 kmh SE 0.7 mph1.1 kmh 29.46 in997.6 mb 0.00 in0.0 mm 0.00 in/hr0.0 mm/hr 0.06 in1.5 mm
09:36 AM 55.8°F13.2°C 55.5°F13.1°C 99% 0.1 mph SE0.2 kmh SE 0.7 mph1.1 kmh 29.46 in997.6 mb 0.00 in0.0 mm 0.00 in/hr0.0 mm/hr 0.06 in1.5 mm
09:35 AM 55.9°F13.3°C 55.7°F13.2°C 99% 0.2 mph SE0.3 kmh SE 1.6 mph2.6 kmh 29.46 in997.6 mb 0.00 in0.0 mm 0.00 in/hr0.0 mm/hr 0.06 in1.5 mm
09:34 AM 55.9°F13.3°C 55.7°F13.2°C 99% 0.3 mph SE0.5 kmh SE 1.6 mph2.6 kmh 29.46 in997.6 mb 0.00 in0.0 mm 0.00 in/hr0.0 mm/hr 0.06 in1.5 mm
09:33 AM 56.1°F13.4°C 55.9°F13.3°C 99% 0.4 mph SE0.6 kmh SE 1.6 mph2.6 kmh 29.46 in997.6 mb 0.00 in0.0 mm 0.00 in/hr0.0 mm/hr 0.06 in1.5 mm
09:32 AM 55.9°F13.3°C 55.7°F13.2°C 99% 0.4 mph SE0.6 kmh SE 1.6 mph2.6 kmh 29.46 in997.6 mb 0.00 in0.0 mm 0.00 in/hr0.0 mm/hr 0.06 in1.5 mm
09:31 AM 55.9°F13.3°C 55.7°F13.2°C 99% 0.6 mph SE1.0 kmh SE 1.6 mph2.6 kmh 29.46 in997.6 mb 0.01 in0.3 mm 0.00 in/hr0.0 mm/hr 0.06 in1.5 mm
09:30 AM 55.9°F13.3°C 55.7°F13.2°C 99% 0.7 mph SE1.1 kmh SE 2.2 mph3.5 kmh 29.46 in997.6 mb 0.01 in0.3 mm 0.00 in/hr0.0 mm/hr 0.06 in1.5 mm
09:29 AM 55.8°F13.2°C 55.5°F13.1°C 99% 1.0 mph SSE1.6 kmh SSE 3.8 mph6.1 kmh 29.46 in997.6 mb 0.01 in0.3 mm 0.00 in/hr0.0 mm/hr 0.06 in1.5 mm
09:28 AM 55.8°F13.2°C 55.5°F13.1°C 99% 1.5 mph S2.4 kmh S 5.4 mph8.7 kmh 29.46 in997.6 mb 0.01 in0.3 mm 0.00 in/hr0.0 mm/hr 0.06 in1.5 mm
09:27 AM 55.8°F13.2°C 55.5°F13.1°C 99% 1.9 mph S3.1 kmh S 5.4 mph8.7 kmh 29.46 in997.6 mb 0.01 in0.3 mm 0.00 in/hr0.0 mm/hr 0.06 in1.5 mm
09:26 AM 55.6°F13.1°C 55.3°F12.9°C 99% 1.8 mph S2.9 kmh S 5.4 mph8.7 kmh 29.46 in997.6 mb 0.01 in0.3 mm 0.00 in/hr0.0 mm/hr 0.06 in1.5 mm
09:25 AM 55.6°F13.1°C 55.3°F12.9°C 99% 1.7 mph S2.7 kmh S 5.4 mph8.7 kmh 29.46 in997.6 mb 0.01 in0.3 mm 0.00 in/hr0.0 mm/hr 0.06 in1.5 mm
09:24 AM 55.8°F13.2°C 55.5°F13.1°C 99% 1.6 mph S2.6 kmh S 5.4 mph8.7 kmh 29.46 in997.6 mb 0.01 in0.3 mm 0.00 in/hr0.0 mm/hr 0.06 in1.5 mm
09:23 AM 55.6°F13.1°C 55.3°F12.9°C 99% 1.5 mph S2.4 kmh S 5.4 mph8.7 kmh 29.46 in997.6 mb 0.01 in0.3 mm 0.00 in/hr0.0 mm/hr 0.06 in1.5 mm
09:22 AM 55.9°F13.3°C 55.7°F13.2°C 99% 1.5 mph SSW2.4 kmh SSW 5.4 mph8.7 kmh 29.46 in997.6 mb 0.01 in0.3 mm 0.00 in/hr0.0 mm/hr 0.06 in1.5 mm
09:21 AM 55.4°F13.0°C 55.1°F12.8°C 99% 1.3 mph SSW2.1 kmh SSW 5.4 mph8.7 kmh 29.46 in997.6 mb 0.01 in0.3 mm 0.00 in/hr0.0 mm/hr 0.06 in1.5 mm
09:20 AM 55.2°F12.9°C 55.0°F12.8°C 99% 1.1 mph SW1.8 kmh SW 5.4 mph8.7 kmh 29.46 in997.6 mb 0.01 in0.3 mm 0.00 in/hr0.0 mm/hr 0.06 in1.5 mm
09:19 AM 55.0°F12.8°C 54.8°F12.7°C 99% 0.9 mph SSW1.4 kmh SSW 5.4 mph8.7 kmh 29.46 in997.6 mb 0.01 in0.3 mm 0.00 in/hr0.0 mm/hr 0.06 in1.5 mm
09:18 AM 55.8°F13.2°C 55.5°F13.1°C 99% 0.4 mph SW0.6 kmh SW 5.4 mph8.7 kmh 29.46 in997.6 mb 0.01 in0.3 mm 0.00 in/hr0.0 mm/hr 0.06 in1.5 mm
09:17 AM 55.6°F13.1°C 55.3°F12.9°C 99% Calm Calm -- 29.46 in997.6 mb 0.01 in0.3 mm 0.00 in/hr0.0 mm/hr 0.06 in1.5 mm
09:16 AM 55.6°F13.1°C 55.3°F12.9°C 99% Calm Calm -- 29.46 in997.6 mb 0.01 in0.3 mm 0.00 in/hr0.0 mm/hr 0.06 in1.5 mm
09:15 AM 55.4°F13.0°C 55.1°F12.8°C 99% Calm Calm -- 29.46 in997.6 mb 0.01 in0.3 mm 0.00 in/hr0.0 mm/hr 0.06 in1.5 mm
09:14 AM 55.2°F12.9°C 55.0°F12.8°C 99% Calm Calm -- 29.46 in997.6 mb 0.01 in0.3 mm 0.00 in/hr0.0 mm/hr 0.06 in1.5 mm
09:13 AM 55.2°F12.9°C 55.0°F12.8°C 99% Calm Calm -- 29.46 in997.6 mb 0.01 in0.3 mm 0.00 in/hr0.0 mm/hr 0.06 in1.5 mm
09:12 AM 54.9°F12.7°C 54.6°F12.6°C 99% Calm Calm -- 29.46 in997.6 mb 0.01 in0.3 mm 0.00 in/hr0.0 mm/hr 0.06 in1.5 mm
09:11 AM 55.2°F12.9°C 55.0°F12.8°C 99% Calm Calm -- 29.46 in997.6 mb 0.01 in0.3 mm 0.00 in/hr0.0 mm/hr 0.06 in1.5 mm
09:10 AM 54.7°F12.6°C 54.4°F12.4°C 99% Calm Calm -- 29.46 in997.6 mb 0.01 in0.3 mm 0.00 in/hr0.0 mm/hr 0.06 in1.5 mm
09:09 AM 55.0°F12.8°C 54.8°F12.7°C 99% Calm Calm -- 29.46 in997.6 mb 0.01 in0.3 mm 0.00 in/hr0.0 mm/hr 0.06 in1.5 mm
09:08 AM 55.2°F12.9°C 55.0°F12.8°C 99% Calm Calm -- 29.46 in997.6 mb 0.01 in0.3 mm 0.00 in/hr0.0 mm/hr 0.06 in1.5 mm
09:07 AM 55.2°F12.9°C 55.0°F12.8°C 99% Calm Calm -- 29.46 in997.6 mb 0.01 in0.3 mm 0.00 in/hr0.0 mm/hr 0.06 in1.5 mm
09:06 AM 55.2°F12.9°C 55.0°F12.8°C 99% Calm Calm -- 29.46 in997.6 mb 0.01 in0.3 mm 0.00 in/hr0.0 mm/hr 0.06 in1.5 mm
09:05 AM 55.2°F12.9°C 55.0°F12.8°C 99% Calm Calm -- 29.46 in997.6 mb 0.01 in0.3 mm 0.00 in/hr0.0 mm/hr 0.06 in1.5 mm
09:04 AM 55.0°F12.8°C 54.8°F12.7°C 99% Calm Calm -- 29.46 in997.6 mb 0.01 in0.3 mm 0.00 in/hr0.0 mm/hr 0.06 in1.5 mm
09:03 AM 55.0°F12.8°C 54.8°F12.7°C 99% Calm Calm -- 29.46 in997.6 mb 0.01 in0.3 mm 0.00 in/hr0.0 mm/hr 0.06 in1.5 mm
09:02 AM 54.7°F12.6°C 54.4°F12.4°C 99% Calm Calm -- 29.46 in997.6 mb 0.01 in0.3 mm 0.00 in/hr0.0 mm/hr 0.06 in1.5 mm
09:01 AM 55.0°F12.8°C 54.8°F12.7°C 99% Calm Calm -- 29.47 in998.0 mb 0.01 in0.3 mm 0.00 in/hr0.0 mm/hr 0.06 in1.5 mm
09:00 AM 55.0°F12.8°C 54.8°F12.7°C 99% Calm Calm -- 29.47 in998.0 mb 0.01 in0.3 mm 0.00 in/hr0.0 mm/hr 0.06 in1.5 mm
08:59 AM 55.0°F12.8°C 54.8°F12.7°C 99% Calm Calm -- 29.47 in998.0 mb 0.01 in0.3 mm 0.00 in/hr0.0 mm/hr 0.06 in1.5 mm
08:58 AM 55.4°F13.0°C 55.1°F12.8°C 99% Calm Calm -- 29.47 in998.0 mb 0.01 in0.3 mm 0.00 in/hr0.0 mm/hr 0.06 in1.5 mm
08:57 AM 55.2°F12.9°C 55.0°F12.8°C 99% Calm Calm -- 29.47 in998.0 mb 0.01 in0.3 mm 0.00 in/hr0.0 mm/hr 0.06 in1.5 mm
08:56 AM 54.9°F12.7°C 54.6°F12.6°C 99% Calm Calm -- 29.47 in998.0 mb 0.01 in0.3 mm 0.00 in/hr0.0 mm/hr 0.06 in1.5 mm
08:55 AM 55.0°F12.8°C 54.8°F12.7°C 99% Calm Calm -- 29.47 in998.0 mb 0.01 in0.3 mm 0.00 in/hr0.0 mm/hr 0.06 in1.5 mm
08:54 AM 54.9°F12.7°C 54.6°F12.6°C 99% Calm Calm -- 29.47 in998.0 mb 0.01 in0.3 mm 0.00 in/hr0.0 mm/hr 0.06 in1.5 mm
08:53 AM 54.9°F12.7°C 54.6°F12.6°C 99% Calm Calm -- 29.47 in998.0 mb 0.01 in0.3 mm 0.00 in/hr0.0 mm/hr 0.06 in1.5 mm
08:52 AM 54.9°F12.7°C 54.6°F12.6°C 99% Calm Calm -- 29.47 in998.0 mb 0.01 in0.3 mm 0.00 in/hr0.0 mm/hr 0.06 in1.5 mm
08:51 AM 55.2°F12.9°C 55.0°F12.8°C 99% Calm Calm -- 29.47 in998.0 mb 0.01 in0.3 mm 0.00 in/hr0.0 mm/hr 0.06 in1.5 mm
08:50 AM 54.9°F12.7°C 54.6°F12.6°C 99% Calm Calm -- 29.47 in998.0 mb 0.01 in0.3 mm 0.00 in/hr0.0 mm/hr 0.06 in1.5 mm
08:49 AM 55.0°F12.8°C 54.8°F12.7°C 99% Calm Calm -- 29.47 in998.0 mb 0.01 in0.3 mm 0.00 in/hr0.0 mm/hr 0.06 in1.5 mm
08:48 AM 55.2°F12.9°C 55.0°F12.8°C 99% Calm Calm -- 29.48 in998.3 mb 0.01 in0.3 mm 0.00 in/hr0.0 mm/hr 0.06 in1.5 mm
08:47 AM 55.2°F12.9°C 55.0°F12.8°C 99% Calm Calm -- 29.48 in998.3 mb 0.01 in0.3 mm 0.00 in/hr0.0 mm/hr 0.06 in1.5 mm
08:46 AM 54.9°F12.7°C 54.6°F12.6°C 99% Calm Calm -- 29.48 in998.3 mb 0.01 in0.3 mm 0.00 in/hr0.0 mm/hr 0.06 in1.5 mm
08:45 AM 55.0°F12.8°C 54.8°F12.7°C 99% Calm Calm -- 29.48 in998.3 mb 0.01 in0.3 mm 0.00 in/hr0.0 mm/hr 0.06 in1.5 mm
08:44 AM 54.9°F12.7°C 54.6°F12.6°C 99% Calm Calm -- 29.48 in998.3 mb 0.01 in0.3 mm 0.00 in/hr0.0 mm/hr 0.06 in1.5 mm
08:43 AM 55.0°F12.8°C 54.8°F12.7°C 99% Calm Calm -- 29.48 in998.3 mb 0.01 in0.3 mm 0.00 in/hr0.0 mm/hr 0.06 in1.5 mm
08:42 AM 55.0°F12.8°C 54.8°F12.7°C 99% Calm Calm -- 29.48 in998.3 mb 0.02 in0.5 mm 0.00 in/hr0.0 mm/hr 0.06 in1.5 mm
08:41 AM 54.9°F12.7°C 54.6°F12.6°C 99% Calm Calm -- 29.47 in998.0 mb 0.02 in0.5 mm 0.00 in/hr0.0 mm/hr 0.06 in1.5 mm
08:40 AM 55.2°F12.9°C 55.0°F12.8°C 99% Calm Calm -- 29.48 in998.3 mb 0.02 in0.5 mm 0.00 in/hr0.0 mm/hr 0.06 in1.5 mm
08:39 AM 55.2°F12.9°C 55.0°F12.8°C 99% Calm Calm -- 29.48 in998.3 mb 0.02 in0.5 mm 0.00 in/hr0.0 mm/hr 0.06 in1.5 mm
08:38 AM 54.9°F12.7°C 54.6°F12.6°C 99% Calm Calm -- 29.48 in998.3 mb 0.02 in0.5 mm 0.00 in/hr0.0 mm/hr 0.06 in1.5 mm
08:37 AM 55.0°F12.8°C 54.8°F12.7°C 99% Calm Calm -- 29.48 in998.3 mb 0.02 in0.5 mm 0.00 in/hr0.0 mm/hr 0.06 in1.5 mm
08:36 AM 55.2°F12.9°C 55.0°F12.8°C 99% 0.2 mph E0.3 kmh E 2.2 mph3.5 kmh 29.48 in998.3 mb 0.02 in0.5 mm 0.00 in/hr0.0 mm/hr 0.06 in1.5 mm
08:35 AM 54.9°F12.7°C 54.6°F12.6°C 99% 0.5 mph ESE0.8 kmh ESE 3.8 mph6.1 kmh 29.48 in998.3 mb 0.02 in0.5 mm 0.00 in/hr0.0 mm/hr 0.06 in1.5 mm
08:34 AM 55.0°F12.8°C 54.8°F12.7°C 99% 0.9 mph ESE1.4 kmh ESE 3.8 mph6.1 kmh 29.48 in998.3 mb 0.02 in0.5 mm 0.00 in/hr0.0 mm/hr 0.06 in1.5 mm
08:33 AM 55.2°F12.9°C 55.0°F12.8°C 99% 1.0 mph ESE1.6 kmh ESE 3.8 mph6.1 kmh 29.47 in998.0 mb 0.02 in0.5 mm 0.00 in/hr0.0 mm/hr 0.06 in1.5 mm
08:32 AM 55.4°F13.0°C 55.1°F12.8°C 99% 1.1 mph ESE1.8 kmh ESE 3.8 mph6.1 kmh 29.47 in998.0 mb 0.02 in0.5 mm 0.60 in/hr15.2 mm/hr 0.06 in1.5 mm
08:31 AM 54.9°F12.7°C 54.6°F12.6°C 99% 1.1 mph ESE1.8 kmh ESE 3.8 mph6.1 kmh 29.47 in998.0 mb 0.01 in0.3 mm 0.00 in/hr0.0 mm/hr 0.05 in1.3 mm
08:30 AM 55.0°F12.8°C 54.8°F12.7°C 99% 1.1 mph ESE1.8 kmh ESE 3.8 mph6.1 kmh 29.47 in998.0 mb 0.01 in0.3 mm 0.00 in/hr0.0 mm/hr 0.05 in1.3 mm
08:29 AM 55.4°F13.0°C 55.1°F12.8°C 99% 1.1 mph ESE1.8 kmh ESE 3.8 mph6.1 kmh 29.47 in998.0 mb 0.01 in0.3 mm 0.00 in/hr0.0 mm/hr 0.05 in1.3 mm
08:28 AM 55.0°F12.8°C 54.8°F12.7°C 99% 1.1 mph ESE1.8 kmh ESE 3.8 mph6.1 kmh 29.48 in998.3 mb 0.01 in0.3 mm 0.00 in/hr0.0 mm/hr 0.05 in1.3 mm
08:27 AM 54.5°F12.5°C 54.2°F12.3°C 99% 1.1 mph ESE1.8 kmh ESE 3.8 mph6.1 kmh 29.48 in998.3 mb 0.01 in0.3 mm 0.00 in/hr0.0 mm/hr 0.05 in1.3 mm
08:26 AM 55.0°F12.8°C 54.8°F12.7°C 99% 0.9 mph SE1.4 kmh SE 3.8 mph6.1 kmh 29.48 in998.3 mb 0.01 in0.3 mm 0.00 in/hr0.0 mm/hr 0.05 in1.3 mm
08:25 AM 55.0°F12.8°C 54.8°F12.7°C 99% 0.5 mph ESE0.8 kmh ESE 3.8 mph6.1 kmh 29.48 in998.3 mb 0.01 in0.3 mm 0.00 in/hr0.0 mm/hr 0.05 in1.3 mm
08:24 AM 55.2°F12.9°C 55.0°F12.8°C 99% 0.2 mph SE0.3 kmh SE 3.1 mph5.0 kmh 29.48 in998.3 mb 0.01 in0.3 mm 0.00 in/hr0.0 mm/hr 0.05 in1.3 mm
08:23 AM 55.2°F12.9°C 55.0°F12.8°C 99% Calm Calm 0.7 mph1.1 kmh 29.49 in998.6 mb 0.01 in0.3 mm 0.00 in/hr0.0 mm/hr 0.05 in1.3 mm
08:22 AM 55.0°F12.8°C 54.8°F12.7°C 99% 0.1 mph NE0.2 kmh NE 2.2 mph3.5 kmh 29.49 in998.6 mb 0.01 in0.3 mm 0.00 in/hr0.0 mm/hr 0.05 in1.3 mm
08:21 AM 55.0°F12.8°C 54.8°F12.7°C 99% 0.4 mph NE0.6 kmh NE 3.1 mph5.0 kmh 29.48 in998.3 mb 0.01 in0.3 mm 0.00 in/hr0.0 mm/hr 0.05 in1.3 mm
08:20 AM 54.9°F12.7°C 54.6°F12.6°C 99% 0.4 mph NE0.6 kmh NE 3.1 mph5.0 kmh 29.48 in998.3 mb 0.01 in0.3 mm 0.00 in/hr0.0 mm/hr 0.05 in1.3 mm
08:19 AM 55.0°F12.8°C 54.8°F12.7°C 99% 0.4 mph NE0.6 kmh NE 3.1 mph5.0 kmh 29.48 in998.3 mb 0.01 in0.3 mm 0.00 in/hr0.0 mm/hr 0.05 in1.3 mm
08:18 AM 55.2°F12.9°C 55.0°F12.8°C 99% 0.4 mph NE0.6 kmh NE 3.1 mph5.0 kmh 29.48 in998.3 mb 0.01 in0.3 mm 0.00 in/hr0.0 mm/hr 0.05 in1.3 mm
08:17 AM 55.0°F12.8°C 54.8°F12.7°C 99% 0.4 mph NE0.6 kmh NE 3.1 mph5.0 kmh 29.48 in998.3 mb 0.01 in0.3 mm 0.00 in/hr0.0 mm/hr 0.05 in1.3 mm
08:16 AM 55.0°F12.8°C 54.8°F12.7°C 99% 0.4 mph NE0.6 kmh NE 3.1 mph5.0 kmh 29.48 in998.3 mb 0.02 in0.5 mm 0.00 in/hr0.0 mm/hr 0.05 in1.3 mm
08:15 AM 55.0°F12.8°C 54.8°F12.7°C 99% 0.4 mph NE0.6 kmh NE 3.1 mph5.0 kmh 29.48 in998.3 mb 0.02 in0.5 mm 0.00 in/hr0.0 mm/hr 0.05 in1.3 mm
08:14 AM 55.0°F12.8°C 54.8°F12.7°C 99% 0.4 mph NE0.6 kmh NE 3.1 mph5.0 kmh 29.48 in998.3 mb 0.02 in0.5 mm 0.00 in/hr0.0 mm/hr 0.05 in1.3 mm
08:13 AM 55.0°F12.8°C 54.8°F12.7°C 99% 0.4 mph NE0.6 kmh NE 3.1 mph5.0 kmh 29.48 in998.3 mb 0.02 in0.5 mm 0.00 in/hr0.0 mm/hr 0.05 in1.3 mm
08:12 AM 54.9°F12.7°C 54.6°F12.6°C 99% 0.3 mph NE0.5 kmh NE 3.1 mph5.0 kmh 29.48 in998.3 mb 0.02 in0.5 mm 0.00 in/hr0.0 mm/hr 0.05 in1.3 mm
08:11 AM 55.2°F12.9°C 55.0°F12.8°C 99% 0.2 mph E0.3 kmh E 3.1 mph5.0 kmh 29.48 in998.3 mb 0.02 in0.5 mm 0.00 in/hr0.0 mm/hr 0.05 in1.3 mm
08:10 AM 55.0°F12.8°C 54.8°F12.7°C 99% 0.1 mph SE0.2 kmh SE 1.6 mph2.6 kmh 29.48 in998.3 mb 0.02 in0.5 mm 0.00 in/hr0.0 mm/hr 0.05 in1.3 mm
08:09 AM 55.0°F12.8°C 54.8°F12.7°C 99% 0.1 mph SE0.2 kmh SE 1.6 mph2.6 kmh 29.48 in998.3 mb 0.02 in0.5 mm 0.00 in/hr0.0 mm/hr 0.05 in1.3 mm
08:08 AM 54.9°F12.7°C 54.6°F12.6°C 99% 0.1 mph SE0.2 kmh SE 1.6 mph2.6 kmh 29.48 in998.3 mb 0.02 in0.5 mm 0.00 in/hr0.0 mm/hr 0.05 in1.3 mm
08:07 AM 55.0°F12.8°C 54.8°F12.7°C 99% 0.2 mph SE0.3 kmh SE 2.2 mph3.5 kmh 29.48 in998.3 mb 0.02 in0.5 mm 0.00 in/hr0.0 mm/hr 0.05 in1.3 mm
08:06 AM 54.9°F12.7°C 54.6°F12.6°C 99% 0.5 mph SE0.8 kmh SE 2.2 mph3.5 kmh 29.48 in998.3 mb 0.02 in0.5 mm 0.00 in/hr0.0 mm/hr 0.05 in1.3 mm
08:05 AM 55.0°F12.8°C 54.8°F12.7°C 99% 0.7 mph SE1.1 kmh SE 2.2 mph3.5 kmh 29.48 in998.3 mb 0.02 in0.5 mm 0.00 in/hr0.0 mm/hr 0.05 in1.3 mm
08:04 AM 54.9°F12.7°C 54.6°F12.6°C 99% 0.7 mph SE1.1 kmh SE 2.2 mph3.5 kmh 29.48 in998.3 mb 0.02 in0.5 mm 0.00 in/hr0.0 mm/hr 0.05 in1.3 mm
08:03 AM 55.2°F12.9°C 55.0°F12.8°C 99% 0.7 mph SE1.1 kmh SE 2.2 mph3.5 kmh 29.48 in998.3 mb 0.04 in1.0 mm 0.00 in/hr0.0 mm/hr 0.05 in1.3 mm
08:02 AM 54.7°F12.6°C 54.4°F12.4°C 99% 0.7 mph SE1.1 kmh SE 2.2 mph3.5 kmh 29.48 in998.3 mb 0.04 in1.0 mm 0.00 in/hr0.0 mm/hr 0.05 in1.3 mm
08:01 AM 55.0°F12.8°C 54.8°F12.7°C 99% 0.6 mph SE1.0 kmh SE 2.2 mph3.5 kmh 29.48 in998.3 mb 0.04 in1.0 mm 0.00 in/hr0.0 mm/hr 0.05 in1.3 mm
08:00 AM 54.9°F12.7°C 54.6°F12.6°C 99% 0.6 mph SE1.0 kmh SE 2.2 mph3.5 kmh 29.48 in998.3 mb 0.04 in1.0 mm 0.00 in/hr0.0 mm/hr 0.05 in1.3 mm
07:59 AM 55.0°F12.8°C 54.8°F12.7°C 99% 0.6 mph SE1.0 kmh SE 2.2 mph3.5 kmh 29.48 in998.3 mb 0.04 in1.0 mm 0.00 in/hr0.0 mm/hr 0.05 in1.3 mm
07:58 AM 55.0°F12.8°C 54.8°F12.7°C 99% 0.7 mph SSE1.1 kmh SSE 2.2 mph3.5 kmh 29.48 in998.3 mb 0.04 in1.0 mm 0.00 in/hr0.0 mm/hr 0.05 in1.3 mm
07:57 AM 55.2°F12.9°C 55.0°F12.8°C 99% 0.8 mph S1.3 kmh S 2.2 mph3.5 kmh 29.48 in998.3 mb 0.04 in1.0 mm 0.00 in/hr0.0 mm/hr 0.05 in1.3 mm
07:56 AM 55.0°F12.8°C 54.8°F12.7°C 99% 0.9 mph SW1.4 kmh SW 3.8 mph6.1 kmh 29.48 in998.3 mb 0.04 in1.0 mm 0.00 in/hr0.0 mm/hr 0.05 in1.3 mm
07:55 AM 54.7°F12.6°C 54.4°F12.4°C 99% 1.1 mph WSW1.8 kmh WSW 4.5 mph7.2 kmh 29.47 in998.0 mb 0.04 in1.0 mm 0.00 in/hr0.0 mm/hr 0.05 in1.3 mm
07:54 AM 54.9°F12.7°C 54.6°F12.6°C 99% 1.5 mph W2.4 kmh W 5.4 mph8.7 kmh 29.47 in998.0 mb 0.04 in1.0 mm 0.00 in/hr0.0 mm/hr 0.05 in1.3 mm
07:53 AM 55.0°F12.8°C 54.8°F12.7°C 99% 2.1 mph W3.4 kmh W 6.0 mph9.7 kmh 29.47 in998.0 mb 0.04 in1.0 mm 0.00 in/hr0.0 mm/hr 0.05 in1.3 mm
07:52 AM 55.0°F12.8°C 54.8°F12.7°C 99% 2.7 mph W4.3 kmh W 6.0 mph9.7 kmh 29.47 in998.0 mb 0.04 in1.0 mm 0.00 in/hr0.0 mm/hr 0.05 in1.3 mm
07:51 AM 54.9°F12.7°C 54.6°F12.6°C 99% 3.5 mph W5.6 kmh W 8.3 mph13.4 kmh 29.47 in998.0 mb 0.04 in1.0 mm 0.00 in/hr0.0 mm/hr 0.05 in1.3 mm
07:50 AM 55.0°F12.8°C 54.8°F12.7°C 99% 4.2 mph W6.8 kmh W 8.3 mph13.4 kmh 29.47 in998.0 mb 0.04 in1.0 mm 0.00 in/hr0.0 mm/hr 0.05 in1.3 mm
07:49 AM 55.0°F12.8°C 54.8°F12.7°C 99% 4.7 mph W7.6 kmh W 8.3 mph13.4 kmh 29.47 in998.0 mb 0.04 in1.0 mm 0.00 in/hr0.0 mm/hr 0.05 in1.3 mm
07:48 AM 55.2°F12.9°C 55.0°F12.8°C 99% 5.1 mph W8.2 kmh W 8.3 mph13.4 kmh 29.47 in998.0 mb 0.04 in1.0 mm 0.00 in/hr0.0 mm/hr 0.05 in1.3 mm
07:47 AM 55.2°F12.9°C 55.0°F12.8°C 99% 5.4 mph W8.7 kmh W 8.3 mph13.4 kmh 29.47 in998.0 mb 0.04 in1.0 mm 0.00 in/hr0.0 mm/hr 0.05 in1.3 mm
07:46 AM 55.0°F12.8°C 54.8°F12.7°C 99% 5.4 mph W8.7 kmh W 8.3 mph13.4 kmh 29.47 in998.0 mb 0.04 in1.0 mm 0.00 in/hr0.0 mm/hr 0.05 in1.3 mm
07:45 AM 54.9°F12.7°C 54.6°F12.6°C 99% 5.2 mph W8.4 kmh W 8.3 mph13.4 kmh 29.47 in998.0 mb 0.04 in1.0 mm 0.00 in/hr0.0 mm/hr 0.05 in1.3 mm
07:44 AM 55.0°F12.8°C 54.8°F12.7°C 99% 5.1 mph W8.2 kmh W 8.3 mph13.4 kmh 29.47 in998.0 mb 0.04 in1.0 mm 1.20 in/hr30.5 mm/hr 0.05 in1.3 mm
07:43 AM 55.0°F12.8°C 54.8°F12.7°C 99% 4.9 mph W7.9 kmh W 8.3 mph13.4 kmh 29.47 in998.0 mb 0.02 in0.5 mm 0.00 in/hr0.0 mm/hr 0.04 in1.0 mm
07:42 AM 55.0°F12.8°C 54.8°F12.7°C 99% 4.6 mph W7.4 kmh W 8.3 mph13.4 kmh 29.47 in998.0 mb 0.02 in0.5 mm 0.00 in/hr0.0 mm/hr 0.04 in1.0 mm
07:41 AM 54.9°F12.7°C 54.6°F12.6°C 99% 4.2 mph W6.8 kmh W 8.3 mph13.4 kmh 29.47 in998.0 mb 0.02 in0.5 mm 0.00 in/hr0.0 mm/hr 0.04 in1.0 mm
07:40 AM 55.0°F12.8°C 54.8°F12.7°C 99% 3.8 mph W6.1 kmh W 6.0 mph9.7 kmh 29.47 in998.0 mb 0.02 in0.5 mm 0.00 in/hr0.0 mm/hr 0.04 in1.0 mm
07:39 AM 55.0°F12.8°C 54.8°F12.7°C 99% 3.4 mph W5.5 kmh W 4.5 mph7.2 kmh 29.47 in998.0 mb 0.02 in0.5 mm 0.00 in/hr0.0 mm/hr 0.04 in1.0 mm
07:38 AM 54.9°F12.7°C 54.6°F12.6°C 99% 3.2 mph W5.1 kmh W 4.5 mph7.2 kmh 29.47 in998.0 mb 0.02 in0.5 mm 0.00 in/hr0.0 mm/hr 0.04 in1.0 mm
07:37 AM 55.2°F12.9°C 55.0°F12.8°C 99% 3.2 mph W5.1 kmh W 5.4 mph8.7 kmh 29.48 in998.3 mb 0.02 in0.5 mm 0.00 in/hr0.0 mm/hr 0.04 in1.0 mm
07:36 AM 54.7°F12.6°C 54.4°F12.4°C 99% 3.1 mph WNW5.0 kmh WNW 5.4 mph8.7 kmh 29.48 in998.3 mb 0.02 in0.5 mm 0.00 in/hr0.0 mm/hr 0.04 in1.0 mm
07:35 AM 55.4°F13.0°C 55.1°F12.8°C 99% 2.9 mph WNW4.7 kmh WNW 5.4 mph8.7 kmh 29.48 in998.3 mb 0.02 in0.5 mm 0.00 in/hr0.0 mm/hr 0.04 in1.0 mm
07:34 AM 54.7°F12.6°C 54.4°F12.4°C 99% 3.0 mph WNW4.8 kmh WNW 5.4 mph8.7 kmh 29.48 in998.3 mb 0.02 in0.5 mm 0.00 in/hr0.0 mm/hr 0.04 in1.0 mm
07:33 AM 55.0°F12.8°C 54.8°F12.7°C 99% 3.0 mph WNW4.8 kmh WNW 5.4 mph8.7 kmh 29.48 in998.3 mb 0.02 in0.5 mm 0.00 in/hr0.0 mm/hr 0.04 in1.0 mm
07:32 AM 54.5°F12.5°C 54.2°F12.3°C 99% 3.1 mph NW5.0 kmh NW 5.4 mph8.7 kmh 29.48 in998.3 mb 0.02 in0.5 mm 0.00 in/hr0.0 mm/hr 0.04 in1.0 mm
07:31 AM 55.0°F12.8°C 54.8°F12.7°C 99% 3.3 mph WNW5.3 kmh WNW 5.4 mph8.7 kmh 29.48 in998.3 mb 0.02 in0.5 mm 0.00 in/hr0.0 mm/hr 0.04 in1.0 mm
07:30 AM 54.9°F12.7°C 54.6°F12.6°C 99% 3.4 mph WNW5.5 kmh WNW 5.4 mph8.7 kmh 29.48 in998.3 mb 0.02 in0.5 mm 0.00 in/hr0.0 mm/hr 0.04 in1.0 mm
07:29 AM 55.0°F12.8°C 54.8°F12.7°C 99% 3.5 mph WNW5.6 kmh WNW 5.4 mph8.7 kmh 29.48 in998.3 mb 0.02 in0.5 mm 0.00 in/hr0.0 mm/hr 0.04 in1.0 mm
07:28 AM 55.0°F12.8°C 54.8°F12.7°C 99% 3.6 mph NW5.8 kmh NW 5.4 mph8.7 kmh 29.48 in998.3 mb 0.02 in0.5 mm 0.00 in/hr0.0 mm/hr 0.04 in1.0 mm
07:27 AM 55.0°F12.8°C 54.8°F12.7°C 99% 3.8 mph WNW6.1 kmh WNW 5.4 mph8.7 kmh 29.48 in998.3 mb 0.02 in0.5 mm 0.00 in/hr0.0 mm/hr 0.04 in1.0 mm
07:26 AM 54.7°F12.6°C 54.4°F12.4°C 99% 3.9 mph WNW6.3 kmh WNW 5.4 mph8.7 kmh 29.48 in998.3 mb 0.02 in0.5 mm 0.00 in/hr0.0 mm/hr 0.04 in1.0 mm
07:25 AM 54.7°F12.6°C 54.4°F12.4°C 99% 4.2 mph WNW6.8 kmh WNW 5.4 mph8.7 kmh 29.48 in998.3 mb 0.02 in0.5 mm 0.00 in/hr0.0 mm/hr 0.04 in1.0 mm
07:24 AM 54.9°F12.7°C 54.6°F12.6°C 99% 4.3 mph WNW6.9 kmh WNW 5.4 mph8.7 kmh 29.48 in998.3 mb 0.02 in0.5 mm 0.00 in/hr0.0 mm/hr 0.04 in1.0 mm
07:23 AM 54.7°F12.6°C 54.4°F12.4°C 99% 4.2 mph W6.8 kmh W 5.4 mph8.7 kmh 29.48 in998.3 mb 0.02 in0.5 mm 0.00 in/hr0.0 mm/hr 0.04 in1.0 mm
07:22 AM 55.0°F12.8°C 54.8°F12.7°C 99% 4.0 mph WNW6.4 kmh WNW 5.4 mph8.7 kmh 29.48 in998.3 mb 0.02 in0.5 mm 0.00 in/hr0.0 mm/hr 0.04 in1.0 mm
07:21 AM 54.9°F12.7°C 54.6°F12.6°C 99% 3.8 mph WNW6.1 kmh WNW 5.4 mph8.7 kmh 29.48 in998.3 mb 0.02 in0.5 mm 0.00 in/hr0.0 mm/hr 0.04 in1.0 mm
07:20 AM 54.9°F12.7°C 54.6°F12.6°C 99% 3.7 mph WNW6.0 kmh WNW 5.4 mph8.7 kmh 29.48 in998.3 mb 0.02 in0.5 mm 0.00 in/hr0.0 mm/hr 0.04 in1.0 mm
07:19 AM 54.7°F12.6°C 54.4°F12.4°C 99% 3.8 mph WNW6.1 kmh WNW 5.4 mph8.7 kmh 29.49 in998.6 mb 0.02 in0.5 mm 0.00 in/hr0.0 mm/hr 0.04 in1.0 mm
07:18 AM 55.0°F12.8°C 54.8°F12.7°C 99% 3.8 mph WNW6.1 kmh WNW 5.4 mph8.7 kmh 29.49 in998.6 mb 0.02 in0.5 mm 0.00 in/hr0.0 mm/hr 0.04 in1.0 mm
07:17 AM 54.9°F12.7°C 54.6°F12.6°C 99% 3.6 mph WNW5.8 kmh WNW 5.4 mph8.7 kmh 29.48 in998.3 mb 0.02 in0.5 mm 0.60 in/hr15.2 mm/hr 0.04 in1.0 mm
07:16 AM 55.0°F12.8°C 54.8°F12.7°C 99% 3.5 mph WNW5.6 kmh WNW 5.4 mph8.7 kmh 29.48 in998.3 mb 0.01 in0.3 mm 0.00 in/hr0.0 mm/hr 0.02 in0.5 mm
07:15 AM 54.9°F12.7°C 54.6°F12.6°C 99% 3.3 mph NW5.3 kmh NW 4.5 mph7.2 kmh 29.49 in998.6 mb 0.01 in0.3 mm 0.00 in/hr0.0 mm/hr 0.02 in0.5 mm
07:14 AM 55.0°F12.8°C 54.8°F12.7°C 99% 3.2 mph NW5.1 kmh NW 3.8 mph6.1 kmh 29.49 in998.6 mb 0.01 in0.3 mm 0.00 in/hr0.0 mm/hr 0.02 in0.5 mm
07:13 AM 55.0°F12.8°C 54.8°F12.7°C 99% 3.0 mph NW4.8 kmh NW 3.8 mph6.1 kmh 29.49 in998.6 mb 0.01 in0.3 mm 0.00 in/hr0.0 mm/hr 0.02 in0.5 mm
07:12 AM 54.7°F12.6°C 54.4°F12.4°C 99% 2.7 mph NNW4.3 kmh NNW 3.8 mph6.1 kmh 29.49 in998.6 mb 0.01 in0.3 mm 0.00 in/hr0.0 mm/hr 0.02 in0.5 mm
07:11 AM 54.7°F12.6°C 54.4°F12.4°C 99% 2.4 mph NNW3.9 kmh NNW 3.8 mph6.1 kmh 29.50 in999.0 mb 0.01 in0.3 mm 0.00 in/hr0.0 mm/hr 0.02 in0.5 mm
07:10 AM 54.9°F12.7°C 54.6°F12.6°C 99% 2.1 mph NNW3.4 kmh NNW 3.8 mph6.1 kmh 29.50 in999.0 mb 0.01 in0.3 mm 0.00 in/hr0.0 mm/hr 0.02 in0.5 mm
07:09 AM 54.9°F12.7°C 54.6°F12.6°C 99% 1.7 mph NNW2.7 kmh NNW 3.8 mph6.1 kmh 29.50 in999.0 mb 0.01 in0.3 mm 0.00 in/hr0.0 mm/hr 0.02 in0.5 mm
07:08 AM 54.9°F12.7°C 54.6°F12.6°C 99% 1.4 mph N2.3 kmh N 3.1 mph5.0 kmh 29.50 in999.0 mb 0.01 in0.3 mm 0.00 in/hr0.0 mm/hr 0.02 in0.5 mm
07:07 AM 54.7°F12.6°C 54.4°F12.4°C 99% 1.1 mph N1.8 kmh N 3.1 mph5.0 kmh 29.51 in999.3 mb 0.01 in0.3 mm 0.00 in/hr0.0 mm/hr 0.02 in0.5 mm
07:06 AM 54.9°F12.7°C 54.6°F12.6°C 99% 0.8 mph NE1.3 kmh NE 3.1 mph5.0 kmh 29.51 in999.3 mb 0.01 in0.3 mm 0.00 in/hr0.0 mm/hr 0.02 in0.5 mm
07:05 AM 55.0°F12.8°C 54.8°F12.7°C 99% 0.5 mph NE0.8 kmh NE 3.1 mph5.0 kmh 29.51 in999.3 mb 0.01 in0.3 mm 0.60 in/hr15.2 mm/hr 0.02 in0.5 mm
07:04 AM 54.7°F12.6°C 54.4°F12.4°C 99% 0.2 mph E0.3 kmh E 3.1 mph5.0 kmh 29.51 in999.3 mb 0.00 in0.0 mm 0.00 in/hr0.0 mm/hr 0.01 in0.3 mm
07:03 AM 54.7°F12.6°C 54.4°F12.4°C 99% Calm Calm -- 29.51 in999.3 mb 0.00 in0.0 mm 0.00 in/hr0.0 mm/hr 0.01 in0.3 mm
07:02 AM 55.0°F12.8°C 54.8°F12.7°C 99% Calm Calm -- 29.51 in999.3 mb 0.00 in0.0 mm 0.00 in/hr0.0 mm/hr 0.01 in0.3 mm
07:01 AM 55.0°F12.8°C 54.8°F12.7°C 99% Calm Calm -- 29.51 in999.3 mb 0.00 in0.0 mm 0.00 in/hr0.0 mm/hr 0.01 in0.3 mm
07:00 AM 54.7°F12.6°C 54.4°F12.4°C 99% Calm Calm -- 29.51 in999.3 mb 0.00 in0.0 mm 0.00 in/hr0.0 mm/hr 0.01 in0.3 mm
06:59 AM 54.7°F12.6°C 54.4°F12.4°C 99% Calm Calm -- 29.50 in999.0 mb 0.00 in0.0 mm 0.00 in/hr0.0 mm/hr 0.01 in0.3 mm
06:58 AM 54.5°F12.5°C 54.2°F12.3°C 99% Calm Calm -- 29.50 in999.0 mb 0.00 in0.0 mm 0.00 in/hr0.0 mm/hr 0.01 in0.3 mm
06:57 AM 54.9°F12.7°C 54.6°F12.6°C 99% Calm Calm -- 29.50 in999.0 mb 0.00 in0.0 mm 0.00 in/hr0.0 mm/hr 0.01 in0.3 mm
06:56 AM 54.5°F12.5°C 54.2°F12.3°C 99% Calm Calm -- 29.50 in999.0 mb 0.00 in0.0 mm 0.00 in/hr0.0 mm/hr 0.01 in0.3 mm
06:55 AM 54.9°F12.7°C 54.6°F12.6°C 99% Calm Calm -- 29.50 in999.0 mb 0.00 in0.0 mm 0.00 in/hr0.0 mm/hr 0.01 in0.3 mm
06:54 AM 54.7°F12.6°C 54.4°F12.4°C 99% 0.2 mph E0.3 kmh E 2.2 mph3.5 kmh 29.50 in999.0 mb 0.00 in0.0 mm 0.00 in/hr0.0 mm/hr 0.01 in0.3 mm
06:53 AM 54.7°F12.6°C 54.4°F12.4°C 99% 0.4 mph E0.6 kmh E 2.2 mph3.5 kmh 29.50 in999.0 mb 0.00 in0.0 mm 0.00 in/hr0.0 mm/hr 0.01 in0.3 mm
06:52 AM 55.2°F12.9°C 55.0°F12.8°C 99% 0.6 mph E1.0 kmh E 2.2 mph3.5 kmh 29.49 in998.6 mb 0.00 in0.0 mm 0.00 in/hr0.0 mm/hr 0.01 in0.3 mm
06:51 AM 54.7°F12.6°C 54.4°F12.4°C 99% 0.9 mph E1.4 kmh E 3.1 mph5.0 kmh 29.49 in998.6 mb 0.00 in0.0 mm 0.00 in/hr0.0 mm/hr 0.01 in0.3 mm
06:50 AM 54.7°F12.6°C 54.4°F12.4°C 99% 0.9 mph E1.4 kmh E 3.1 mph5.0 kmh 29.49 in998.6 mb 0.00 in0.0 mm 0.00 in/hr0.0 mm/hr 0.01 in0.3 mm
06:49 AM 54.9°F12.7°C 54.6°F12.6°C 99% 0.9 mph E1.4 kmh E 3.1 mph5.0 kmh 29.49 in998.6 mb 0.00 in0.0 mm 0.00 in/hr0.0 mm/hr 0.01 in0.3 mm
06:48 AM 54.9°F12.7°C 54.6°F12.6°C 99% 1.0 mph E1.6 kmh E 3.1 mph5.0 kmh 29.49 in998.6 mb 0.00 in0.0 mm 0.00 in/hr0.0 mm/hr 0.01 in0.3 mm
06:47 AM 54.7°F12.6°C 54.4°F12.4°C 99% 1.0 mph E1.6 kmh E 3.1 mph5.0 kmh 29.49 in998.6 mb 0.00 in0.0 mm 0.00 in/hr0.0 mm/hr 0.01 in0.3 mm
06:46 AM 54.9°F12.7°C 54.6°F12.6°C 99% 1.1 mph E1.8 kmh E 3.1 mph5.0 kmh 29.49 in998.6 mb 0.00 in0.0 mm 0.00 in/hr0.0 mm/hr 0.01 in0.3 mm
06:45 AM 54.9°F12.7°C 54.6°F12.6°C 99% 1.1 mph E1.8 kmh E 3.1 mph5.0 kmh 29.49 in998.6 mb 0.00 in0.0 mm 0.00 in/hr0.0 mm/hr 0.01 in0.3 mm
06:44 AM 54.9°F12.7°C 54.6°F12.6°C 99% 1.0 mph E1.6 kmh E 3.1 mph5.0 kmh 29.49 in998.6 mb 0.00 in0.0 mm 0.00 in/hr0.0 mm/hr 0.01 in0.3 mm
06:43 AM 54.7°F12.6°C 54.4°F12.4°C 99% 0.7 mph E1.1 kmh E 3.1 mph5.0 kmh 29.49 in998.6 mb 0.00 in0.0 mm 0.00 in/hr0.0 mm/hr 0.01 in0.3 mm
06:42 AM 55.0°F12.8°C 54.8°F12.7°C 99% 0.5 mph E0.8 kmh E 3.1 mph5.0 kmh 29.49 in998.6 mb 0.00 in0.0 mm 0.00 in/hr0.0 mm/hr 0.01 in0.3 mm
06:41 AM 54.7°F12.6°C 54.4°F12.4°C 99% 0.2 mph E0.3 kmh E 1.6 mph2.6 kmh 29.49 in998.6 mb 0.01 in0.3 mm 0.00 in/hr0.0 mm/hr 0.01 in0.3 mm
06:40 AM 54.9°F12.7°C 54.6°F12.6°C 99% 0.2 mph E0.3 kmh E 1.6 mph2.6 kmh 29.49 in998.6 mb 0.01 in0.3 mm 0.00 in/hr0.0 mm/hr 0.01 in0.3 mm
06:39 AM 54.7°F12.6°C 54.4°F12.4°C 99% 0.2 mph E0.3 kmh E 1.6 mph2.6 kmh 29.49 in998.6 mb 0.01 in0.3 mm 0.00 in/hr0.0 mm/hr 0.01 in0.3 mm
06:38 AM 55.0°F12.8°C 54.8°F12.7°C 99% 0.2 mph E0.3 kmh E 1.6 mph2.6 kmh 29.49 in998.6 mb 0.01 in0.3 mm 0.00 in/hr0.0 mm/hr 0.01 in0.3 mm
06:37 AM 54.9°F12.7°C 54.6°F12.6°C 99% 0.1 mph E0.2 kmh E 1.6 mph2.6 kmh 29.49 in998.6 mb 0.01 in0.3 mm 0.00 in/hr0.0 mm/hr 0.01 in0.3 mm
06:36 AM 55.0°F12.8°C 54.8°F12.7°C 99% Calm Calm -- 29.49 in998.6 mb 0.01 in0.3 mm 0.00 in/hr0.0 mm/hr 0.01 in0.3 mm
06:35 AM 54.9°F12.7°C 54.6°F12.6°C 99% Calm Calm -- 29.50 in999.0 mb 0.01 in0.3 mm 0.00 in/hr0.0 mm/hr 0.01 in0.3 mm
06:34 AM 54.5°F12.5°C 54.2°F12.3°C 99% Calm Calm -- 29.50 in999.0 mb 0.01 in0.3 mm 0.00 in/hr0.0 mm/hr 0.01 in0.3 mm
06:33 AM 54.7°F12.6°C 54.4°F12.4°C 99% Calm Calm -- 29.50 in999.0 mb 0.01 in0.3 mm 0.00 in/hr0.0 mm/hr 0.01 in0.3 mm
06:32 AM 55.0°F12.8°C 54.8°F12.7°C 99% Calm Calm -- 29.50 in999.0 mb 0.01 in0.3 mm 0.00 in/hr0.0 mm/hr 0.01 in0.3 mm
06:31 AM 54.7°F12.6°C 54.4°F12.4°C 99% Calm Calm -- 29.50 in999.0 mb 0.01 in0.3 mm 0.00 in/hr0.0 mm/hr 0.01 in0.3 mm
06:30 AM 55.2°F12.9°C 55.0°F12.8°C 99% Calm Calm -- 29.50 in999.0 mb 0.01 in0.3 mm 0.00 in/hr0.0 mm/hr 0.01 in0.3 mm
06:29 AM 54.9°F12.7°C 54.6°F12.6°C 99% Calm Calm -- 29.50 in999.0 mb 0.01 in0.3 mm 0.00 in/hr0.0 mm/hr 0.01 in0.3 mm
06:28 AM 54.7°F12.6°C 54.4°F12.4°C 99% Calm Calm -- 29.49 in998.6 mb 0.01 in0.3 mm 0.00 in/hr0.0 mm/hr 0.01 in0.3 mm
06:27 AM 54.5°F12.5°C 54.2°F12.3°C 99% Calm Calm -- 29.49 in998.6 mb 0.01 in0.3 mm 0.00 in/hr0.0 mm/hr 0.01 in0.3 mm
06:26 AM 54.5°F12.5°C 54.2°F12.3°C 99% Calm Calm -- 29.49 in998.6 mb 0.01 in0.3 mm 0.00 in/hr0.0 mm/hr 0.01 in0.3 mm
06:25 AM 54.7°F12.6°C 54.4°F12.4°C 99% Calm Calm -- 29.50 in999.0 mb 0.01 in0.3 mm 0.00 in/hr0.0 mm/hr 0.01 in0.3 mm
06:24 AM 54.7°F12.6°C 54.4°F12.4°C 99% Calm Calm -- 29.50 in999.0 mb 0.01 in0.3 mm 0.00 in/hr0.0 mm/hr 0.01 in0.3 mm
06:23 AM 54.5°F12.5°C 54.2°F12.3°C 99% Calm Calm -- 29.49 in998.6 mb 0.01 in0.3 mm 0.00 in/hr0.0 mm/hr 0.01 in0.3 mm
06:22 AM 54.5°F12.5°C 54.2°F12.3°C 99% Calm Calm -- 29.49 in998.6 mb 0.01 in0.3 mm 0.00 in/hr0.0 mm/hr 0.01 in0.3 mm
06:21 AM 54.3°F12.4°C 54.1°F12.3°C 99% Calm Calm -- 29.49 in998.6 mb 0.01 in0.3 mm 0.00 in/hr0.0 mm/hr 0.01 in0.3 mm
06:20 AM 54.5°F12.5°C 54.2°F12.3°C 99% Calm Calm -- 29.49 in998.6 mb 0.01 in0.3 mm 0.00 in/hr0.0 mm/hr 0.01 in0.3 mm
06:19 AM 54.9°F12.7°C 54.6°F12.6°C 99% Calm Calm -- 29.49 in998.6 mb 0.01 in0.3 mm 0.00 in/hr0.0 mm/hr 0.01 in0.3 mm
06:18 AM 54.7°F12.6°C 54.4°F12.4°C 99% Calm Calm -- 29.49 in998.6 mb 0.01 in0.3 mm 0.00 in/hr0.0 mm/hr 0.01 in0.3 mm
06:17 AM 54.9°F12.7°C 54.6°F12.6°C 99% Calm Calm -- 29.48 in998.3 mb 0.01 in0.3 mm 0.00 in/hr0.0 mm/hr 0.01 in0.3 mm
06:16 AM 54.7°F12.6°C 54.4°F12.4°C 99% Calm Calm -- 29.49 in998.6 mb 0.01 in0.3 mm 0.00 in/hr0.0 mm/hr 0.01 in0.3 mm
06:15 AM 54.7°F12.6°C 54.4°F12.4°C 99% Calm Calm -- 29.48 in998.3 mb 0.01 in0.3 mm 0.00 in/hr0.0 mm/hr 0.01 in0.3 mm
06:14 AM 54.9°F12.7°C 54.6°F12.6°C 99% Calm Calm -- 29.48 in998.3 mb 0.01 in0.3 mm 0.00 in/hr0.0 mm/hr 0.01 in0.3 mm
06:13 AM 54.7°F12.6°C 54.4°F12.4°C 99% Calm Calm -- 29.49 in998.6 mb 0.01 in0.3 mm 0.00 in/hr0.0 mm/hr 0.01 in0.3 mm
06:12 AM 54.7°F12.6°C 54.4°F12.4°C 99% Calm Calm -- 29.49 in998.6 mb 0.01 in0.3 mm 0.00 in/hr0.0 mm/hr 0.01 in0.3 mm
06:11 AM 54.9°F12.7°C 54.6°F12.6°C 99% Calm Calm -- 29.49 in998.6 mb 0.01 in0.3 mm 0.00 in/hr0.0 mm/hr 0.01 in0.3 mm
06:10 AM 54.7°F12.6°C 54.4°F12.4°C 99% Calm Calm -- 29.49 in998.6 mb 0.01 in0.3 mm 0.00 in/hr0.0 mm/hr 0.01 in0.3 mm
06:09 AM 54.7°F12.6°C 54.4°F12.4°C 99% Calm Calm -- 29.49 in998.6 mb 0.01 in0.3 mm 0.00 in/hr0.0 mm/hr 0.01 in0.3 mm
06:08 AM 54.7°F12.6°C 54.4°F12.4°C 99% Calm Calm -- 29.48 in998.3 mb 0.01 in0.3 mm 0.00 in/hr0.0 mm/hr 0.01 in0.3 mm
06:07 AM 54.7°F12.6°C 54.4°F12.4°C 99% Calm Calm -- 29.48 in998.3 mb 0.01 in0.3 mm 0.00 in/hr0.0 mm/hr 0.01 in0.3 mm
06:06 AM 54.7°F12.6°C 54.4°F12.4°C 99% Calm Calm -- 29.48 in998.3 mb 0.01 in0.3 mm 0.00 in/hr0.0 mm/hr 0.01 in0.3 mm
06:05 AM 54.7°F12.6°C 54.4°F12.4°C 99% Calm Calm -- 29.48 in998.3 mb 0.01 in0.3 mm 0.00 in/hr0.0 mm/hr 0.01 in0.3 mm
06:04 AM 54.9°F12.7°C 54.6°F12.6°C 99% Calm Calm -- 29.48 in998.3 mb 0.01 in0.3 mm 0.00 in/hr0.0 mm/hr 0.01 in0.3 mm
06:03 AM 54.3°F12.4°C 54.1°F12.3°C 99% 0.1 mph E0.2 kmh E 0.7 mph1.1 kmh 29.48 in998.3 mb 0.01 in0.3 mm 0.00 in/hr0.0 mm/hr 0.01 in0.3 mm
06:02 AM 54.9°F12.7°C 54.6°F12.6°C 99% 0.3 mph E0.5 kmh E 3.1 mph5.0 kmh 29.48 in998.3 mb 0.01 in0.3 mm 0.00 in/hr0.0 mm/hr 0.01 in0.3 mm
06:01 AM 54.7°F12.6°C 54.4°F12.4°C 99% 0.6 mph NE1.0 kmh NE 3.8 mph6.1 kmh 29.48 in998.3 mb 0.01 in0.3 mm 0.00 in/hr0.0 mm/hr 0.01 in0.3 mm
06:00 AM 54.3°F12.4°C 54.1°F12.3°C 99% 1.2 mph NE1.9 kmh NE 5.4 mph8.7 kmh 29.48 in998.3 mb 0.01 in0.3 mm 0.00 in/hr0.0 mm/hr 0.01 in0.3 mm
05:59 AM 54.9°F12.7°C 54.6°F12.6°C 99% 1.5 mph NE2.4 kmh NE 5.4 mph8.7 kmh 29.48 in998.3 mb 0.01 in0.3 mm 0.00 in/hr0.0 mm/hr 0.01 in0.3 mm
05:58 AM 54.7°F12.6°C 54.4°F12.4°C 99% 1.8 mph NNE2.9 kmh NNE 5.4 mph8.7 kmh 29.48 in998.3 mb 0.01 in0.3 mm 0.00 in/hr0.0 mm/hr 0.01 in0.3 mm
05:57 AM 54.9°F12.7°C 54.6°F12.6°C 99% 2.1 mph NNE3.4 kmh NNE 5.4 mph8.7 kmh 29.48 in998.3 mb 0.01 in0.3 mm 0.00 in/hr0.0 mm/hr 0.01 in0.3 mm
05:56 AM 54.7°F12.6°C 54.4°F12.4°C 99% 2.3 mph NNE3.7 kmh NNE 5.4 mph8.7 kmh 29.48 in998.3 mb 0.01 in0.3 mm 0.00 in/hr0.0 mm/hr 0.01 in0.3 mm
05:55 AM 54.9°F12.7°C 54.6°F12.6°C 99% 2.6 mph N4.2 kmh N 5.4 mph8.7 kmh 29.48 in998.3 mb 0.01 in0.3 mm 0.00 in/hr0.0 mm/hr 0.01 in0.3 mm
05:54 AM 54.7°F12.6°C 54.4°F12.4°C 99% 2.7 mph NNE4.3 kmh NNE 5.4 mph8.7 kmh 29.48 in998.3 mb 0.01 in0.3 mm 0.00 in/hr0.0 mm/hr 0.01 in0.3 mm
05:53 AM 54.9°F12.7°C 54.6°F12.6°C 99% 2.6 mph NNE4.2 kmh NNE 5.4 mph8.7 kmh 29.48 in998.3 mb 0.01 in0.3 mm 0.00 in/hr0.0 mm/hr 0.01 in0.3 mm
05:52 AM 54.9°F12.7°C 54.6°F12.6°C 99% 2.4 mph N3.9 kmh N 5.4 mph8.7 kmh 29.49 in998.6 mb 0.01 in0.3 mm 0.00 in/hr0.0 mm/hr 0.01 in0.3 mm
05:51 AM 54.7°F12.6°C 54.4°F12.4°C 99% 2.0 mph N3.2 kmh N 5.4 mph8.7 kmh 29.49 in998.6 mb 0.01 in0.3 mm 0.00 in/hr0.0 mm/hr 0.01 in0.3 mm
05:50 AM 54.3°F12.4°C 54.1°F12.3°C 99% 1.5 mph N2.4 kmh N 5.4 mph8.7 kmh 29.49 in998.6 mb 0.01 in0.3 mm 0.00 in/hr0.0 mm/hr 0.01 in0.3 mm
05:49 AM 54.7°F12.6°C 54.4°F12.4°C 99% 1.2 mph N1.9 kmh N 3.1 mph5.0 kmh 29.49 in998.6 mb 0.01 in0.3 mm 0.00 in/hr0.0 mm/hr 0.01 in0.3 mm
05:48 AM 55.0°F12.8°C 54.8°F12.7°C 99% 0.9 mph N1.4 kmh N 3.1 mph5.0 kmh 29.49 in998.6 mb 0.01 in0.3 mm 0.00 in/hr0.0 mm/hr 0.01 in0.3 mm
05:47 AM 54.3°F12.4°C 54.1°F12.3°C 99% 0.6 mph NNW1.0 kmh NNW 3.1 mph5.0 kmh 29.49 in998.6 mb 0.01 in0.3 mm 0.00 in/hr0.0 mm/hr 0.01 in0.3 mm
05:46 AM 54.7°F12.6°C 54.4°F12.4°C 99% 0.3 mph N0.5 kmh N 2.2 mph3.5 kmh 29.49 in998.6 mb 0.01 in0.3 mm 0.00 in/hr0.0 mm/hr 0.01 in0.3 mm
05:45 AM 54.7°F12.6°C 54.4°F12.4°C 99% 0.1 mph E0.2 kmh E 1.6 mph2.6 kmh 29.50 in999.0 mb 0.01 in0.3 mm 0.00 in/hr0.0 mm/hr 0.01 in0.3 mm
05:44 AM 54.7°F12.6°C 54.4°F12.4°C 99% Calm Calm -- 29.50 in999.0 mb 0.01 in0.3 mm 0.00 in/hr0.0 mm/hr 0.01 in0.3 mm
05:43 AM 54.7°F12.6°C 54.4°F12.4°C 99% Calm Calm -- 29.50 in999.0 mb 0.01 in0.3 mm 0.00 in/hr0.0 mm/hr 0.01 in0.3 mm
05:42 AM 54.7°F12.6°C 54.4°F12.4°C 99% Calm Calm -- 29.50 in999.0 mb 0.01 in0.3 mm 0.60 in/hr15.2 mm/hr 0.01 in0.3 mm
05:41 AM 54.9°F12.7°C 54.6°F12.6°C 99% Calm Calm -- 29.49 in998.6 mb 0.00 in0.0 mm 0.00 in/hr0.0 mm/hr 0.01 in0.3 mm
05:40 AM 54.5°F12.5°C 54.2°F12.3°C 99% Calm Calm -- 29.50 in999.0 mb 0.00 in0.0 mm 0.00 in/hr0.0 mm/hr 0.01 in0.3 mm
05:39 AM 54.5°F12.5°C 54.2°F12.3°C 99% Calm Calm -- 29.50 in999.0 mb 0.00 in0.0 mm 0.00 in/hr0.0 mm/hr 0.01 in0.3 mm
05:38 AM 54.7°F12.6°C 54.4°F12.4°C 99% 0.1 mph E0.2 kmh E 1.6 mph2.6 kmh 29.50 in999.0 mb 0.00 in0.0 mm 0.00 in/hr0.0 mm/hr 0.01 in0.3 mm
05:37 AM 54.7°F12.6°C 54.4°F12.4°C 99% 0.3 mph E0.5 kmh E 3.1 mph5.0 kmh 29.50 in999.0 mb 0.00 in0.0 mm 0.00 in/hr0.0 mm/hr 0.01 in0.3 mm
05:36 AM 54.7°F12.6°C 54.4°F12.4°C 99% 0.4 mph E0.6 kmh E 3.1 mph5.0 kmh 29.50 in999.0 mb 0.00 in0.0 mm 0.00 in/hr0.0 mm/hr 0.01 in0.3 mm
05:35 AM 54.7°F12.6°C 54.4°F12.4°C 99% 0.4 mph E0.6 kmh E 3.1 mph5.0 kmh 29.49 in998.6 mb 0.00 in0.0 mm 0.00 in/hr0.0 mm/hr 0.01 in0.3 mm
05:34 AM 54.5°F12.5°C 54.2°F12.3°C 99% 0.4 mph E0.6 kmh E 3.1 mph5.0 kmh 29.49 in998.6 mb 0.00 in0.0 mm 0.00 in/hr0.0 mm/hr 0.01 in0.3 mm
05:33 AM 54.5°F12.5°C 54.2°F12.3°C 99% 0.4 mph E0.6 kmh E 3.1 mph5.0 kmh 29.50 in999.0 mb 0.00 in0.0 mm 0.00 in/hr0.0 mm/hr 0.01 in0.3 mm
05:32 AM 55.0°F12.8°C 54.8°F12.7°C 99% 0.4 mph E0.6 kmh E 3.1 mph5.0 kmh 29.49 in998.6 mb 0.00 in0.0 mm 0.00 in/hr0.0 mm/hr 0.01 in0.3 mm
05:31 AM 54.7°F12.6°C 54.4°F12.4°C 99% 0.4 mph E0.6 kmh E 3.1 mph5.0 kmh 29.50 in999.0 mb 0.00 in0.0 mm 0.00 in/hr0.0 mm/hr 0.01 in0.3 mm
05:30 AM 54.7°F12.6°C 54.4°F12.4°C 99% 0.4 mph E0.6 kmh E 3.1 mph5.0 kmh 29.50 in999.0 mb 0.00 in0.0 mm 0.00 in/hr0.0 mm/hr 0.01 in0.3 mm
05:29 AM 54.5°F12.5°C 54.2°F12.3°C 99% 0.4 mph E0.6 kmh E 3.1 mph5.0 kmh 29.50 in999.0 mb 0.00 in0.0 mm 0.00 in/hr0.0 mm/hr 0.01 in0.3 mm
05:28 AM 54.3°F12.4°C 54.1°F12.3°C 99% 0.3 mph E0.5 kmh E 3.1 mph5.0 kmh 29.50 in999.0 mb 0.00 in0.0 mm 0.00 in/hr0.0 mm/hr 0.01 in0.3 mm
05:27 AM 54.3°F12.4°C 54.1°F12.3°C 99% 0.1 mph E0.2 kmh E 3.1 mph5.0 kmh 29.50 in999.0 mb 0.00 in0.0 mm 0.00 in/hr0.0 mm/hr 0.01 in0.3 mm
05:26 AM 54.5°F12.5°C 54.2°F12.3°C 99% Calm Calm -- 29.50 in999.0 mb 0.00 in0.0 mm 0.00 in/hr0.0 mm/hr 0.01 in0.3 mm
05:25 AM 54.7°F12.6°C 54.4°F12.4°C 99% Calm Calm -- 29.50 in999.0 mb 0.00 in0.0 mm 0.00 in/hr0.0 mm/hr 0.01 in0.3 mm
05:24 AM 54.7°F12.6°C 54.4°F12.4°C 99% Calm Calm -- 29.50 in999.0 mb 0.00 in0.0 mm 0.00 in/hr0.0 mm/hr 0.01 in0.3 mm
05:23 AM 54.7°F12.6°C 54.4°F12.4°C 99% Calm Calm -- 29.50 in999.0 mb 0.00 in0.0 mm 0.00 in/hr0.0 mm/hr 0.01 in0.3 mm
05:22 AM 54.5°F12.5°C 54.2°F12.3°C 99% Calm Calm -- 29.50 in999.0 mb 0.00 in0.0 mm 0.00 in/hr0.0 mm/hr 0.01 in0.3 mm
05:21 AM 54.5°F12.5°C 54.2°F12.3°C 99% Calm Calm -- 29.49 in998.6 mb 0.00 in0.0 mm 0.00 in/hr0.0 mm/hr 0.01 in0.3 mm
05:20 AM 54.3°F12.4°C 54.1°F12.3°C 99% Calm Calm -- 29.49 in998.6 mb 0.00 in0.0 mm 0.00 in/hr0.0 mm/hr 0.01 in0.3 mm
05:19 AM 54.7°F12.6°C 54.4°F12.4°C 99% Calm Calm -- 29.49 in998.6 mb 0.00 in0.0 mm 0.00 in/hr0.0 mm/hr 0.01 in0.3 mm
05:18 AM 54.5°F12.5°C 54.2°F12.3°C 99% Calm Calm -- 29.49 in998.6 mb 0.00 in0.0 mm 0.00 in/hr0.0 mm/hr 0.01 in0.3 mm
05:17 AM 54.5°F12.5°C 54.2°F12.3°C 99% Calm Calm -- 29.49 in998.6 mb 0.00 in0.0 mm 0.00 in/hr0.0 mm/hr 0.01 in0.3 mm
05:16 AM 54.5°F12.5°C 54.2°F12.3°C 99% Calm Calm -- 29.49 in998.6 mb 0.00 in0.0 mm 0.00 in/hr0.0 mm/hr 0.01 in0.3 mm
05:15 AM 54.1°F12.3°C 53.9°F12.2°C 99% Calm Calm -- 29.49 in998.6 mb 0.00 in0.0 mm 0.00 in/hr0.0 mm/hr 0.01 in0.3 mm
05:14 AM 54.5°F12.5°C 54.2°F12.3°C 99% Calm Calm -- 29.49 in998.6 mb 0.00 in0.0 mm 0.00 in/hr0.0 mm/hr 0.01 in0.3 mm
05:13 AM 54.5°F12.5°C 54.2°F12.3°C 99% Calm Calm -- 29.49 in998.6 mb 0.00 in0.0 mm 0.00 in/hr0.0 mm/hr 0.01 in0.3 mm
05:12 AM 54.5°F12.5°C 54.2°F12.3°C 99% Calm Calm -- 29.49 in998.6 mb 0.00 in0.0 mm 0.00 in/hr0.0 mm/hr 0.01 in0.3 mm
05:11 AM 54.5°F12.5°C 54.2°F12.3°C 99% Calm Calm -- 29.49 in998.6 mb 0.00 in0.0 mm 0.00 in/hr0.0 mm/hr 0.01 in0.3 mm
05:10 AM 54.7°F12.6°C 54.4°F12.4°C 99% Calm Calm -- 29.49 in998.6 mb 0.00 in0.0 mm 0.00 in/hr0.0 mm/hr 0.01 in0.3 mm
05:09 AM 54.7°F12.6°C 54.4°F12.4°C 99% Calm Calm -- 29.50 in999.0 mb 0.00 in0.0 mm 0.00 in/hr0.0 mm/hr 0.01 in0.3 mm
05:08 AM 54.7°F12.6°C 54.4°F12.4°C 99% Calm Calm -- 29.50 in999.0 mb 0.00 in0.0 mm 0.00 in/hr0.0 mm/hr 0.01 in0.3 mm
05:07 AM 54.5°F12.5°C 54.2°F12.3°C 99% Calm Calm -- 29.49 in998.6 mb 0.00 in0.0 mm 0.00 in/hr0.0 mm/hr 0.01 in0.3 mm
05:06 AM 54.1°F12.3°C 53.9°F12.2°C 99% Calm Calm -- 29.49 in998.6 mb 0.00 in0.0 mm 0.00 in/hr0.0 mm/hr 0.01 in0.3 mm
05:05 AM 54.7°F12.6°C 54.4°F12.4°C 99% Calm Calm -- 29.49 in998.6 mb 0.00 in0.0 mm 0.00 in/hr0.0 mm/hr 0.01 in0.3 mm
05:04 AM 54.5°F12.5°C 54.2°F12.3°C 99% Calm Calm -- 29.49 in998.6 mb 0.00 in0.0 mm 0.00 in/hr0.0 mm/hr 0.01 in0.3 mm
05:03 AM 54.5°F12.5°C 54.2°F12.3°C 99% Calm Calm -- 29.49 in998.6 mb 0.00 in0.0 mm 0.00 in/hr0.0 mm/hr 0.01 in0.3 mm
05:02 AM 54.5°F12.5°C 54.2°F12.3°C 99% Calm Calm -- 29.49 in998.6 mb 0.00 in0.0 mm 0.00 in/hr0.0 mm/hr 0.01 in0.3 mm
05:01 AM 54.3°F12.4°C 54.1°F12.3°C 99% Calm Calm -- 29.49 in998.6 mb 0.00 in0.0 mm 0.00 in/hr0.0 mm/hr 0.01 in0.3 mm
05:00 AM 54.7°F12.6°C 54.4°F12.4°C 99% Calm Calm -- 29.49 in998.6 mb 0.00 in0.0 mm 0.00 in/hr0.0 mm/hr 0.01 in0.3 mm
04:59 AM 54.9°F12.7°C 54.6°F12.6°C 99% Calm Calm -- 29.50 in999.0 mb 0.00 in0.0 mm 0.00 in/hr0.0 mm/hr 0.01 in0.3 mm
04:58 AM 54.5°F12.5°C 54.2°F12.3°C 99% Calm Calm -- 29.50 in999.0 mb 0.00 in0.0 mm 0.00 in/hr0.0 mm/hr 0.01 in0.3 mm
04:57 AM 54.5°F12.5°C 54.2°F12.3°C 99% Calm Calm -- 29.49 in998.6 mb 0.00 in0.0 mm 0.00 in/hr0.0 mm/hr 0.01 in0.3 mm
04:56 AM 54.3°F12.4°C 54.1°F12.3°C 99% Calm Calm -- 29.50 in999.0 mb 0.00 in0.0 mm 0.00 in/hr0.0 mm/hr 0.01 in0.3 mm
04:55 AM 54.3°F12.4°C 54.1°F12.3°C 99% Calm Calm -- 29.50 in999.0 mb 0.00 in0.0 mm 0.00 in/hr0.0 mm/hr 0.01 in0.3 mm
04:54 AM 54.5°F12.5°C 54.2°F12.3°C 99% Calm Calm -- 29.50 in999.0 mb 0.00 in0.0 mm 0.00 in/hr0.0 mm/hr 0.01 in0.3 mm
04:53 AM 54.3°F12.4°C 54.1°F12.3°C 99% Calm Calm -- 29.50 in999.0 mb 0.00 in0.0 mm 0.00 in/hr0.0 mm/hr 0.01 in0.3 mm
04:52 AM 54.5°F12.5°C 54.2°F12.3°C 99% Calm Calm -- 29.50 in999.0 mb 0.00 in0.0 mm 0.00 in/hr0.0 mm/hr 0.01 in0.3 mm
04:51 AM 54.5°F12.5°C 54.2°F12.3°C 99% Calm Calm -- 29.50 in999.0 mb 0.00 in0.0 mm 0.00 in/hr0.0 mm/hr 0.01 in0.3 mm
04:50 AM 54.3°F12.4°C 54.1°F12.3°C 99% Calm Calm -- 29.50 in999.0 mb 0.00 in0.0 mm 0.00 in/hr0.0 mm/hr 0.01 in0.3 mm
04:49 AM 54.7°F12.6°C 54.4°F12.4°C 99% Calm Calm -- 29.50 in999.0 mb 0.00 in0.0 mm 0.00 in/hr0.0 mm/hr 0.01 in0.3 mm
04:48 AM 54.7°F12.6°C 54.4°F12.4°C 99% Calm Calm -- 29.50 in999.0 mb 0.00 in0.0 mm 0.00 in/hr0.0 mm/hr 0.01 in0.3 mm
04:47 AM 54.3°F12.4°C 54.1°F12.3°C 99% Calm Calm -- 29.50 in999.0 mb 0.00 in0.0 mm 0.00 in/hr0.0 mm/hr 0.01 in0.3 mm
04:46 AM 54.3°F12.4°C 54.1°F12.3°C 99% Calm Calm -- 29.50 in999.0 mb 0.00 in0.0 mm 0.00 in/hr0.0 mm/hr 0.01 in0.3 mm
04:45 AM 54.5°F12.5°C 54.2°F12.3°C 99% Calm Calm -- 29.50 in999.0 mb 0.00 in0.0 mm 0.00 in/hr0.0 mm/hr 0.01 in0.3 mm
04:44 AM 54.3°F12.4°C 54.1°F12.3°C 99% Calm Calm -- 29.50 in999.0 mb 0.00 in0.0 mm 0.00 in/hr0.0 mm/hr 0.01 in0.3 mm
04:43 AM 54.5°F12.5°C 54.2°F12.3°C 99% Calm Calm -- 29.50 in999.0 mb 0.00 in0.0 mm 0.00 in/hr0.0 mm/hr 0.01 in0.3 mm
04:42 AM 54.7°F12.6°C 54.4°F12.4°C 99% Calm Calm -- 29.50 in999.0 mb 0.00 in0.0 mm 0.00 in/hr0.0 mm/hr 0.01 in0.3 mm
04:41 AM 54.7°F12.6°C 54.4°F12.4°C 99% Calm Calm -- 29.50 in999.0 mb 0.00 in0.0 mm 0.00 in/hr0.0 mm/hr 0.01 in0.3 mm
04:40 AM 54.7°F12.6°C 54.4°F12.4°C 99% Calm Calm -- 29.50 in999.0 mb 0.00 in0.0 mm 0.00 in/hr0.0 mm/hr 0.01 in0.3 mm
04:39 AM 54.5°F12.5°C 54.2°F12.3°C 99% Calm Calm -- 29.50 in999.0 mb 0.00 in0.0 mm 0.00 in/hr0.0 mm/hr 0.01 in0.3 mm
04:38 AM 54.5°F12.5°C 54.2°F12.3°C 99% Calm Calm -- 29.50 in999.0 mb 0.00 in0.0 mm 0.00 in/hr0.0 mm/hr 0.01 in0.3 mm
04:37 AM 54.3°F12.4°C 54.1°F12.3°C 99% Calm Calm -- 29.50 in999.0 mb 0.00 in0.0 mm 0.00 in/hr0.0 mm/hr 0.01 in0.3 mm
04:36 AM 54.5°F12.5°C 54.2°F12.3°C 99% Calm Calm -- 29.50 in999.0 mb 0.00 in0.0 mm 0.00 in/hr0.0 mm/hr 0.01 in0.3 mm
04:35 AM 54.9°F12.7°C 54.6°F12.6°C 99% Calm Calm -- 29.50 in999.0 mb 0.00 in0.0 mm 0.00 in/hr0.0 mm/hr 0.01 in0.3 mm
04:34 AM 54.7°F12.6°C 54.4°F12.4°C 99% Calm Calm -- 29.50 in999.0 mb 0.00 in0.0 mm 0.00 in/hr0.0 mm/hr 0.01 in0.3 mm
04:33 AM 54.7°F12.6°C 54.4°F12.4°C 99% Calm Calm -- 29.51 in999.3 mb 0.00 in0.0 mm 0.00 in/hr0.0 mm/hr 0.01 in0.3 mm
04:32 AM 54.7°F12.6°C 54.4°F12.4°C 99% Calm Calm -- 29.51 in999.3 mb 0.00 in0.0 mm 0.00 in/hr0.0 mm/hr 0.01 in0.3 mm
04:31 AM 54.7°F12.6°C 54.4°F12.4°C 99% Calm Calm -- 29.50 in999.0 mb 0.00 in0.0 mm 0.00 in/hr0.0 mm/hr 0.01 in0.3 mm
04:30 AM 54.5°F12.5°C 54.2°F12.3°C 99% Calm Calm -- 29.50 in999.0 mb 0.00 in0.0 mm 0.00 in/hr0.0 mm/hr 0.01 in0.3 mm
04:29 AM 55.0°F12.8°C 54.8°F12.7°C 99% Calm Calm -- 29.50 in999.0 mb 0.00 in0.0 mm 0.00 in/hr0.0 mm/hr 0.01 in0.3 mm
04:28 AM 54.5°F12.5°C 54.2°F12.3°C 99% Calm Calm -- 29.50 in999.0 mb 0.00 in0.0 mm 0.00 in/hr0.0 mm/hr 0.01 in0.3 mm
04:27 AM 54.5°F12.5°C 54.2°F12.3°C 99% Calm Calm -- 29.51 in999.3 mb 0.00 in0.0 mm 0.00 in/hr0.0 mm/hr 0.01 in0.3 mm
04:26 AM 54.7°F12.6°C 54.4°F12.4°C 99% Calm Calm -- 29.51 in999.3 mb 0.00 in0.0 mm 0.00 in/hr0.0 mm/hr 0.01 in0.3 mm
04:25 AM 54.7°F12.6°C 54.4°F12.4°C 99% Calm Calm -- 29.51 in999.3 mb 0.00 in0.0 mm 0.00 in/hr0.0 mm/hr 0.01 in0.3 mm
04:24 AM 54.9°F12.7°C 54.6°F12.6°C 99% Calm Calm -- 29.51 in999.3 mb 0.00 in0.0 mm 0.00 in/hr0.0 mm/hr 0.01 in0.3 mm
04:23 AM 54.5°F12.5°C 54.2°F12.3°C 99% Calm Calm -- 29.51 in999.3 mb 0.00 in0.0 mm 0.00 in/hr0.0 mm/hr 0.01 in0.3 mm
04:22 AM 54.9°F12.7°C 54.6°F12.6°C 99% Calm Calm -- 29.51 in999.3 mb 0.00 in0.0 mm 0.00 in/hr0.0 mm/hr 0.01 in0.3 mm
04:21 AM 54.7°F12.6°C 54.4°F12.4°C 99% Calm Calm -- 29.51 in999.3 mb 0.00 in0.0 mm 0.00 in/hr0.0 mm/hr 0.01 in0.3 mm
04:20 AM 54.7°F12.6°C 54.4°F12.4°C 99% Calm Calm -- 29.51 in999.3 mb 0.00 in0.0 mm 0.00 in/hr0.0 mm/hr 0.01 in0.3 mm
04:19 AM 55.0°F12.8°C 54.8°F12.7°C 99% Calm Calm -- 29.51 in999.3 mb 0.00 in0.0 mm 0.00 in/hr0.0 mm/hr 0.01 in0.3 mm
04:18 AM 54.5°F12.5°C 54.2°F12.3°C 99% Calm Calm -- 29.51 in999.3 mb 0.00 in0.0 mm 0.00 in/hr0.0 mm/hr 0.01 in0.3 mm
04:17 AM 54.9°F12.7°C 54.6°F12.6°C 99% Calm Calm -- 29.52 in999.7 mb 0.00 in0.0 mm 0.00 in/hr0.0 mm/hr 0.01 in0.3 mm
04:16 AM 54.7°F12.6°C 54.4°F12.4°C 99% Calm Calm -- 29.52 in999.7 mb 0.00 in0.0 mm 0.00 in/hr0.0 mm/hr 0.01 in0.3 mm
04:15 AM 54.5°F12.5°C 54.2°F12.3°C 99% Calm Calm -- 29.52 in999.7 mb 0.00 in0.0 mm 0.00 in/hr0.0 mm/hr 0.01 in0.3 mm
04:14 AM 54.5°F12.5°C 54.2°F12.3°C 99% Calm Calm -- 29.52 in999.7 mb 0.00 in0.0 mm 0.00 in/hr0.0 mm/hr 0.01 in0.3 mm
04:13 AM 54.7°F12.6°C 54.4°F12.4°C 99% Calm Calm -- 29.52 in999.7 mb 0.00 in0.0 mm 0.00 in/hr0.0 mm/hr 0.01 in0.3 mm
04:12 AM 54.7°F12.6°C 54.4°F12.4°C 99% Calm Calm -- 29.52 in999.7 mb 0.00 in0.0 mm 0.00 in/hr0.0 mm/hr 0.01 in0.3 mm
04:11 AM 54.9°F12.7°C 54.6°F12.6°C 99% Calm Calm -- 29.52 in999.7 mb 0.00 in0.0 mm 0.00 in/hr0.0 mm/hr 0.01 in0.3 mm
04:10 AM 54.7°F12.6°C 54.4°F12.4°C 99% Calm Calm -- 29.52 in999.7 mb 0.00 in0.0 mm 0.00 in/hr0.0 mm/hr 0.01 in0.3 mm
04:09 AM 55.0°F12.8°C 54.8°F12.7°C 99% Calm Calm -- 29.52 in999.7 mb 0.00 in0.0 mm 0.00 in/hr0.0 mm/hr 0.01 in0.3 mm
04:08 AM 54.3°F12.4°C 54.1°F12.3°C 99% Calm Calm -- 29.52 in999.7 mb 0.00 in0.0 mm 0.00 in/hr0.0 mm/hr 0.01 in0.3 mm
04:07 AM 54.9°F12.7°C 54.6°F12.6°C 99% Calm Calm -- 29.52 in999.7 mb 0.00 in0.0 mm 0.00 in/hr0.0 mm/hr 0.01 in0.3 mm
04:06 AM 54.9°F12.7°C 54.6°F12.6°C 99% Calm Calm -- 29.52 in999.7 mb 0.00 in0.0 mm 0.00 in/hr0.0 mm/hr 0.01 in0.3 mm
04:05 AM 54.7°F12.6°C 54.4°F12.4°C 99% Calm Calm -- 29.52 in999.7 mb 0.00 in0.0 mm 0.00 in/hr0.0 mm/hr 0.01 in0.3 mm
04:04 AM 54.7°F12.6°C 54.4°F12.4°C 99% Calm Calm -- 29.52 in999.7 mb 0.00 in0.0 mm 0.00 in/hr0.0 mm/hr 0.01 in0.3 mm
04:03 AM 54.9°F12.7°C 54.6°F12.6°C 99% Calm Calm -- 29.52 in999.7 mb 0.00 in0.0 mm 0.00 in/hr0.0 mm/hr 0.01 in0.3 mm
04:02 AM 54.9°F12.7°C 54.6°F12.6°C 99% Calm Calm -- 29.52 in999.7 mb 0.00 in0.0 mm 0.00 in/hr0.0 mm/hr 0.01 in0.3 mm
04:01 AM 54.7°F12.6°C 54.4°F12.4°C 99% Calm Calm -- 29.52 in999.7 mb 0.00 in0.0 mm 0.00 in/hr0.0 mm/hr 0.01 in0.3 mm
04:00 AM 55.0°F12.8°C 54.8°F12.7°C 99% Calm Calm -- 29.52 in999.7 mb 0.00 in0.0 mm 0.00 in/hr0.0 mm/hr 0.01 in0.3 mm
03:59 AM 54.7°F12.6°C 54.4°F12.4°C 99% Calm Calm -- 29.52 in999.7 mb 0.00 in0.0 mm 0.00 in/hr0.0 mm/hr 0.01 in0.3 mm
03:58 AM 54.9°F12.7°C 54.6°F12.6°C 99% Calm Calm -- 29.52 in999.7 mb 0.00 in0.0 mm 0.00 in/hr0.0 mm/hr 0.01 in0.3 mm
03:57 AM 54.7°F12.6°C 54.4°F12.4°C 99% Calm Calm -- 29.52 in999.7 mb 0.00 in0.0 mm 0.00 in/hr0.0 mm/hr 0.01 in0.3 mm
03:56 AM 54.7°F12.6°C 54.4°F12.4°C 99% Calm Calm -- 29.52 in999.7 mb 0.00 in0.0 mm 0.00 in/hr0.0 mm/hr 0.01 in0.3 mm
03:55 AM 54.5°F12.5°C 54.2°F12.3°C 99% Calm Calm -- 29.52 in999.7 mb 0.00 in0.0 mm 0.00 in/hr0.0 mm/hr 0.01 in0.3 mm
03:54 AM 54.7°F12.6°C 54.4°F12.4°C 99% Calm Calm -- 29.52 in999.7 mb 0.00 in0.0 mm 0.00 in/hr0.0 mm/hr 0.01 in0.3 mm
03:53 AM 54.9°F12.7°C 54.6°F12.6°C 99% Calm Calm -- 29.52 in999.7 mb 0.00 in0.0 mm 0.00 in/hr0.0 mm/hr 0.01 in0.3 mm
03:52 AM 54.7°F12.6°C 54.4°F12.4°C 99% Calm Calm -- 29.52 in999.7 mb 0.00 in0.0 mm 0.00 in/hr0.0 mm/hr 0.01 in0.3 mm
03:51 AM 54.7°F12.6°C 54.4°F12.4°C 99% Calm Calm -- 29.52 in999.7 mb 0.00 in0.0 mm 0.00 in/hr0.0 mm/hr 0.01 in0.3 mm
03:50 AM 54.5°F12.5°C 54.2°F12.3°C 99% Calm Calm -- 29.52 in999.7 mb 0.00 in0.0 mm 0.00 in/hr0.0 mm/hr 0.01 in0.3 mm
03:49 AM 55.0°F12.8°C 54.8°F12.7°C 99% Calm Calm -- 29.52 in999.7 mb 0.00 in0.0 mm 0.00 in/hr0.0 mm/hr 0.01 in0.3 mm
03:48 AM 54.9°F12.7°C 54.6°F12.6°C 99% Calm Calm -- 29.52 in999.7 mb 0.00 in0.0 mm 0.00 in/hr0.0 mm/hr 0.01 in0.3 mm
03:47 AM 54.7°F12.6°C 54.4°F12.4°C 99% Calm Calm -- 29.52 in999.7 mb 0.00 in0.0 mm 0.00 in/hr0.0 mm/hr 0.01 in0.3 mm
03:46 AM 55.0°F12.8°C 54.8°F12.7°C 99% Calm Calm -- 29.52 in999.7 mb 0.00 in0.0 mm 0.00 in/hr0.0 mm/hr 0.01 in0.3 mm
03:45 AM 54.7°F12.6°C 54.4°F12.4°C 99% Calm Calm -- 29.52 in999.7 mb 0.00 in0.0 mm 0.00 in/hr0.0 mm/hr 0.01 in0.3 mm
03:44 AM 55.0°F12.8°C 54.8°F12.7°C 99% Calm Calm -- 29.52 in999.7 mb 0.00 in0.0 mm 0.00 in/hr0.0 mm/hr 0.01 in0.3 mm
03:43 AM 55.0°F12.8°C 54.8°F12.7°C 99% Calm Calm -- 29.52 in999.7 mb 0.00 in0.0 mm 0.00 in/hr0.0 mm/hr 0.01 in0.3 mm
03:42 AM 54.7°F12.6°C 54.4°F12.4°C 99% Calm Calm -- 29.52 in999.7 mb 0.00 in0.0 mm 0.00 in/hr0.0 mm/hr 0.01 in0.3 mm
03:41 AM 54.7°F12.6°C 54.4°F12.4°C 99% Calm Calm -- 29.52 in999.7 mb 0.00 in0.0 mm 0.00 in/hr0.0 mm/hr 0.01 in0.3 mm
03:40 AM 54.7°F12.6°C 54.4°F12.4°C 99% Calm Calm -- 29.52 in999.7 mb 0.00 in0.0 mm 0.00 in/hr0.0 mm/hr 0.01 in0.3 mm
03:39 AM 54.7°F12.6°C 54.4°F12.4°C 99% Calm Calm -- 29.52 in999.7 mb 0.00 in0.0 mm 0.00 in/hr0.0 mm/hr 0.01 in0.3 mm
03:38 AM 55.0°F12.8°C 54.8°F12.7°C 99% Calm Calm -- 29.52 in999.7 mb 0.00 in0.0 mm 0.00 in/hr0.0 mm/hr 0.01 in0.3 mm
03:37 AM 54.9°F12.7°C 54.6°F12.6°C 99% Calm Calm -- 29.52 in999.7 mb 0.00 in0.0 mm 0.00 in/hr0.0 mm/hr 0.01 in0.3 mm
03:36 AM 54.9°F12.7°C 54.6°F12.6°C 99% Calm Calm -- 29.52 in999.7 mb 0.00 in0.0 mm 0.00 in/hr0.0 mm/hr 0.01 in0.3 mm
03:35 AM 54.9°F12.7°C 54.6°F12.6°C 99% Calm Calm -- 29.52 in999.7 mb 0.00 in0.0 mm 0.00 in/hr0.0 mm/hr 0.01 in0.3 mm
03:34 AM 54.7°F12.6°C 54.4°F12.4°C 99% Calm Calm -- 29.52 in999.7 mb 0.00 in0.0 mm 0.00 in/hr0.0 mm/hr 0.01 in0.3 mm
03:33 AM 54.5°F12.5°C 54.2°F12.3°C 99% Calm Calm -- 29.52 in999.7 mb 0.00 in0.0 mm 0.00 in/hr0.0 mm/hr 0.01 in0.3 mm
03:32 AM 55.0°F12.8°C 54.8°F12.7°C 99% Calm Calm -- 29.52 in999.7 mb 0.00 in0.0 mm 0.00 in/hr0.0 mm/hr 0.01 in0.3 mm
03:31 AM 54.9°F12.7°C 54.6°F12.6°C 99% Calm Calm -- 29.52 in999.7 mb 0.00 in0.0 mm 0.00 in/hr0.0 mm/hr 0.01 in0.3 mm
03:30 AM 54.9°F12.7°C 54.6°F12.6°C 99% Calm Calm -- 29.52 in999.7 mb 0.00 in0.0 mm 0.00 in/hr0.0 mm/hr 0.01 in0.3 mm
03:29 AM 54.7°F12.6°C 54.4°F12.4°C 99% Calm Calm -- 29.52 in999.7 mb 0.00 in0.0 mm 0.00 in/hr0.0 mm/hr 0.01 in0.3 mm
03:28 AM 54.9°F12.7°C 54.6°F12.6°C 99% Calm Calm -- 29.52 in999.7 mb 0.00 in0.0 mm 0.00 in/hr0.0 mm/hr 0.01 in0.3 mm
03:27 AM 54.9°F12.7°C 54.6°F12.6°C 99% Calm Calm -- 29.53 in1000.0 mb 0.00 in0.0 mm 0.00 in/hr0.0 mm/hr 0.01 in0.3 mm
03:26 AM 55.0°F12.8°C 54.8°F12.7°C 99% Calm Calm -- 29.53 in1000.0 mb 0.00 in0.0 mm 0.00 in/hr0.0 mm/hr 0.01 in0.3 mm
03:25 AM 55.0°F12.8°C 54.8°F12.7°C 99% Calm Calm -- 29.53 in1000.0 mb 0.00 in0.0 mm 0.00 in/hr0.0 mm/hr 0.01 in0.3 mm
03:24 AM 55.0°F12.8°C 54.8°F12.7°C 99% Calm Calm -- 29.53 in1000.0 mb 0.00 in0.0 mm 0.00 in/hr0.0 mm/hr 0.01 in0.3 mm
03:23 AM 54.9°F12.7°C 54.6°F12.6°C 99% Calm Calm -- 29.53 in1000.0 mb 0.00 in0.0 mm 0.00 in/hr0.0 mm/hr 0.01 in0.3 mm
03:22 AM 55.0°F12.8°C 54.8°F12.7°C 99% Calm Calm -- 29.53 in1000.0 mb 0.00 in0.0 mm 0.00 in/hr0.0 mm/hr 0.01 in0.3 mm
03:21 AM 55.2°F12.9°C 55.0°F12.8°C 99% Calm Calm -- 29.53 in1000.0 mb 0.00 in0.0 mm 0.00 in/hr0.0 mm/hr 0.01 in0.3 mm
03:20 AM 55.2°F12.9°C 55.0°F12.8°C 99% Calm Calm -- 29.53 in1000.0 mb 0.00 in0.0 mm 0.00 in/hr0.0 mm/hr 0.01 in0.3 mm
03:19 AM 55.0°F12.8°C 54.8°F12.7°C 99% Calm Calm -- 29.54 in1000.3 mb 0.00 in0.0 mm 0.00 in/hr0.0 mm/hr 0.01 in0.3 mm
03:18 AM 55.4°F13.0°C 55.1°F12.8°C 99% Calm Calm -- 29.54 in1000.3 mb 0.00 in0.0 mm 0.00 in/hr0.0 mm/hr 0.01 in0.3 mm
03:17 AM 55.0°F12.8°C 54.8°F12.7°C 99% Calm Calm -- 29.54 in1000.3 mb 0.00 in0.0 mm 0.00 in/hr0.0 mm/hr 0.01 in0.3 mm
03:16 AM 54.9°F12.7°C 54.6°F12.6°C 99% Calm Calm -- 29.54 in1000.3 mb 0.00 in0.0 mm 0.00 in/hr0.0 mm/hr 0.01 in0.3 mm
03:15 AM 55.0°F12.8°C 54.8°F12.7°C 99% Calm Calm -- 29.54 in1000.3 mb 0.00 in0.0 mm 0.00 in/hr0.0 mm/hr 0.01 in0.3 mm
03:14 AM 55.0°F12.8°C 54.8°F12.7°C 99% Calm Calm -- 29.54 in1000.3 mb 0.00 in0.0 mm 0.00 in/hr0.0 mm/hr 0.01 in0.3 mm
03:13 AM 55.0°F12.8°C 54.8°F12.7°C 99% Calm Calm -- 29.54 in1000.3 mb 0.00 in0.0 mm 0.00 in/hr0.0 mm/hr 0.01 in0.3 mm
03:12 AM 54.9°F12.7°C 54.6°F12.6°C 99% Calm Calm -- 29.55 in1000.7 mb 0.00 in0.0 mm 0.00 in/hr0.0 mm/hr 0.01 in0.3 mm
03:11 AM 55.0°F12.8°C 54.8°F12.7°C 99% Calm Calm -- 29.55 in1000.7 mb 0.00 in0.0 mm 0.00 in/hr0.0 mm/hr 0.01 in0.3 mm
03:10 AM 54.9°F12.7°C 54.6°F12.6°C 99% Calm Calm -- 29.55 in1000.7 mb 0.00 in0.0 mm 0.00 in/hr0.0 mm/hr 0.01 in0.3 mm
03:09 AM 55.0°F12.8°C 54.8°F12.7°C 99% Calm Calm -- 29.55 in1000.7 mb 0.00 in0.0 mm 0.00 in/hr0.0 mm/hr 0.01 in0.3 mm
03:08 AM 54.9°F12.7°C 54.6°F12.6°C 99% Calm Calm -- 29.55 in1000.7 mb 0.00 in0.0 mm 0.00 in/hr0.0 mm/hr 0.01 in0.3 mm
03:07 AM 55.2°F12.9°C 55.0°F12.8°C 99% Calm Calm -- 29.55 in1000.7 mb 0.00 in0.0 mm 0.00 in/hr0.0 mm/hr 0.01 in0.3 mm
03:06 AM 54.9°F12.7°C 54.6°F12.6°C 99% Calm Calm -- 29.55 in1000.7 mb 0.00 in0.0 mm 0.00 in/hr0.0 mm/hr 0.01 in0.3 mm
03:05 AM 55.2°F12.9°C 55.0°F12.8°C 99% Calm Calm -- 29.55 in1000.7 mb 0.00 in0.0 mm 0.00 in/hr0.0 mm/hr 0.01 in0.3 mm
03:04 AM 55.0°F12.8°C 54.8°F12.7°C 99% Calm Calm -- 29.54 in1000.3 mb 0.00 in0.0 mm 0.00 in/hr0.0 mm/hr 0.01 in0.3 mm
03:03 AM 55.0°F12.8°C 54.8°F12.7°C 99% Calm Calm -- 29.54 in1000.3 mb 0.00 in0.0 mm 0.00 in/hr0.0 mm/hr 0.01 in0.3 mm
03:02 AM 55.0°F12.8°C 54.8°F12.7°C 99% Calm Calm -- 29.54 in1000.3 mb 0.00 in0.0 mm 0.00 in/hr0.0 mm/hr 0.01 in0.3 mm
03:01 AM 55.0°F12.8°C 54.8°F12.7°C 99% Calm Calm -- 29.54 in1000.3 mb 0.00 in0.0 mm 0.00 in/hr0.0 mm/hr 0.01 in0.3 mm
03:00 AM 55.0°F12.8°C 54.8°F12.7°C 99% Calm Calm -- 29.54 in1000.3 mb 0.00 in0.0 mm 0.00 in/hr0.0 mm/hr 0.01 in0.3 mm
02:59 AM 54.5°F12.5°C 54.2°F12.3°C 99% 0.1 mph S0.2 kmh S 1.6 mph2.6 kmh 29.54 in1000.3 mb 0.00 in0.0 mm 0.00 in/hr0.0 mm/hr 0.01 in0.3 mm
02:58 AM 55.2°F12.9°C 55.0°F12.8°C 99% 0.4 mph S0.6 kmh S 3.1 mph5.0 kmh 29.54 in1000.3 mb 0.00 in0.0 mm 0.00 in/hr0.0 mm/hr 0.01 in0.3 mm
02:57 AM 55.2°F12.9°C 55.0°F12.8°C 99% 0.7 mph S1.1 kmh S 3.1 mph5.0 kmh 29.53 in1000.0 mb 0.00 in0.0 mm 0.00 in/hr0.0 mm/hr 0.01 in0.3 mm
02:56 AM 55.4°F13.0°C 55.1°F12.8°C 99% 0.9 mph S1.4 kmh S 3.1 mph5.0 kmh 29.54 in1000.3 mb 0.00 in0.0 mm 0.00 in/hr0.0 mm/hr 0.01 in0.3 mm
02:55 AM 55.4°F13.0°C 55.1°F12.8°C 99% 1.0 mph S1.6 kmh S 3.1 mph5.0 kmh 29.54 in1000.3 mb 0.00 in0.0 mm 0.00 in/hr0.0 mm/hr 0.01 in0.3 mm
02:54 AM 54.7°F12.6°C 54.4°F12.4°C 99% 1.0 mph S1.6 kmh S 3.1 mph5.0 kmh 29.54 in1000.3 mb 0.00 in0.0 mm 0.00 in/hr0.0 mm/hr 0.01 in0.3 mm
02:53 AM 55.4°F13.0°C 55.1°F12.8°C 99% 1.0 mph S1.6 kmh S 3.1 mph5.0 kmh 29.53 in1000.0 mb 0.00 in0.0 mm 0.00 in/hr0.0 mm/hr 0.01 in0.3 mm
02:52 AM 55.8°F13.2°C 55.5°F13.1°C 99% 1.0 mph S1.6 kmh S 3.1 mph5.0 kmh 29.54 in1000.3 mb 0.00 in0.0 mm 0.00 in/hr0.0 mm/hr 0.01 in0.3 mm
02:51 AM 55.0°F12.8°C 54.8°F12.7°C 99% 1.0 mph S1.6 kmh S 3.1 mph5.0 kmh 29.54 in1000.3 mb 0.00 in0.0 mm 0.00 in/hr0.0 mm/hr 0.01 in0.3 mm
02:50 AM 55.0°F12.8°C 54.8°F12.7°C 99% 1.0 mph S1.6 kmh S 3.1 mph5.0 kmh 29.54 in1000.3 mb 0.00 in0.0 mm 0.00 in/hr0.0 mm/hr 0.01 in0.3 mm
02:49 AM 55.2°F12.9°C 55.0°F12.8°C 99% 0.8 mph S1.3 kmh S 3.1 mph5.0 kmh 29.54 in1000.3 mb 0.00 in0.0 mm 0.00 in/hr0.0 mm/hr 0.01 in0.3 mm
02:48 AM 55.4°F13.0°C 55.1°F12.8°C 99% 0.6 mph S1.0 kmh S 3.1 mph5.0 kmh 29.54 in1000.3 mb 0.00 in0.0 mm 0.00 in/hr0.0 mm/hr 0.01 in0.3 mm
02:47 AM 55.0°F12.8°C 54.8°F12.7°C 99% 0.5 mph SE0.8 kmh SE 3.1 mph5.0 kmh 29.54 in1000.3 mb 0.00 in0.0 mm 0.00 in/hr0.0 mm/hr 0.01 in0.3 mm
02:46 AM 55.2°F12.9°C 55.0°F12.8°C 99% 0.2 mph NE0.3 kmh NE 2.2 mph3.5 kmh 29.54 in1000.3 mb 0.00 in0.0 mm 0.00 in/hr0.0 mm/hr 0.01 in0.3 mm
02:45 AM 55.4°F13.0°C 55.1°F12.8°C 99% 0.2 mph NE0.3 kmh NE 2.2 mph3.5 kmh 29.55 in1000.7 mb 0.00 in0.0 mm 0.00 in/hr0.0 mm/hr 0.01 in0.3 mm
02:44 AM 55.6°F13.1°C 55.3°F12.9°C 99% 0.2 mph NE0.3 kmh NE 2.2 mph3.5 kmh 29.54 in1000.3 mb 0.00 in0.0 mm 0.00 in/hr0.0 mm/hr 0.01 in0.3 mm
02:43 AM 55.4°F13.0°C 55.1°F12.8°C 99% 0.2 mph NE0.3 kmh NE 2.2 mph3.5 kmh 29.54 in1000.3 mb 0.00 in0.0 mm 0.00 in/hr0.0 mm/hr 0.01 in0.3 mm
02:42 AM 55.6°F13.1°C 55.3°F12.9°C 99% 0.2 mph NE0.3 kmh NE 2.2 mph3.5 kmh 29.54 in1000.3 mb 0.00 in0.0 mm 0.00 in/hr0.0 mm/hr 0.01 in0.3 mm
02:41 AM 55.2°F12.9°C 55.0°F12.8°C 99% 0.2 mph NE0.3 kmh NE 2.2 mph3.5 kmh 29.55 in1000.7 mb 0.00 in0.0 mm 0.00 in/hr0.0 mm/hr 0.01 in0.3 mm
02:40 AM 55.4°F13.0°C 55.1°F12.8°C 99% 0.2 mph NE0.3 kmh NE 2.2 mph3.5 kmh 29.55 in1000.7 mb 0.00 in0.0 mm 0.00 in/hr0.0 mm/hr 0.01 in0.3 mm
02:39 AM 55.4°F13.0°C 55.1°F12.8°C 99% 0.2 mph NE0.3 kmh NE 2.2 mph3.5 kmh 29.55 in1000.7 mb 0.00 in0.0 mm 0.00 in/hr0.0 mm/hr 0.01 in0.3 mm
02:38 AM 55.4°F13.0°C 55.1°F12.8°C 99% 0.4 mph NE0.6 kmh NE 2.2 mph3.5 kmh 29.55 in1000.7 mb 0.00 in0.0 mm 0.00 in/hr0.0 mm/hr 0.01 in0.3 mm
02:37 AM 55.4°F13.0°C 55.1°F12.8°C 99% 0.3 mph NE0.5 kmh NE 1.6 mph2.6 kmh 29.55 in1000.7 mb 0.00 in0.0 mm 0.00 in/hr0.0 mm/hr 0.01 in0.3 mm
02:36 AM 55.4°F13.0°C 55.1°F12.8°C 99% 0.3 mph NE0.5 kmh NE 1.6 mph2.6 kmh 29.55 in1000.7 mb 0.00 in0.0 mm 0.00 in/hr0.0 mm/hr 0.01 in0.3 mm
02:35 AM 55.4°F13.0°C 55.1°F12.8°C 99% 0.5 mph E0.8 kmh E 2.2 mph3.5 kmh 29.55 in1000.7 mb 0.00 in0.0 mm 0.00 in/hr0.0 mm/hr 0.01 in0.3 mm
02:34 AM 55.6°F13.1°C 55.3°F12.9°C 99% 0.8 mph S1.3 kmh S 3.1 mph5.0 kmh 29.55 in1000.7 mb 0.00 in0.0 mm 0.00 in/hr0.0 mm/hr 0.01 in0.3 mm
02:33 AM 55.0°F12.8°C 54.8°F12.7°C 99% 1.1 mph SW1.8 kmh SW 3.1 mph5.0 kmh 29.56 in1001.0 mb 0.00 in0.0 mm 0.00 in/hr0.0 mm/hr 0.01 in0.3 mm
02:32 AM 55.4°F13.0°C 55.1°F12.8°C 99% 1.3 mph WSW2.1 kmh WSW 3.1 mph5.0 kmh 29.56 in1001.0 mb 0.00 in0.0 mm 0.00 in/hr0.0 mm/hr 0.01 in0.3 mm
02:31 AM 55.6°F13.1°C 55.3°F12.9°C 99% 1.7 mph WSW2.7 kmh WSW 3.8 mph6.1 kmh 29.56 in1001.0 mb 0.00 in0.0 mm 0.00 in/hr0.0 mm/hr 0.01 in0.3 mm
02:30 AM 55.8°F13.2°C 55.5°F13.1°C 99% 2.0 mph W3.2 kmh W 3.8 mph6.1 kmh 29.56 in1001.0 mb 0.00 in0.0 mm 0.00 in/hr0.0 mm/hr 0.01 in0.3 mm
02:29 AM 55.4°F13.0°C 55.1°F12.8°C 99% 2.4 mph W3.9 kmh W 4.5 mph7.2 kmh 29.55 in1000.7 mb 0.00 in0.0 mm 0.00 in/hr0.0 mm/hr 0.01 in0.3 mm
02:28 AM 55.4°F13.0°C 55.1°F12.8°C 99% 2.7 mph W4.3 kmh W 5.4 mph8.7 kmh 29.55 in1000.7 mb 0.00 in0.0 mm 0.00 in/hr0.0 mm/hr 0.01 in0.3 mm
02:27 AM 55.6°F13.1°C 55.3°F12.9°C 99% 3.3 mph W5.3 kmh W 6.9 mph11.1 kmh 29.55 in1000.7 mb 0.00 in0.0 mm 0.00 in/hr0.0 mm/hr 0.01 in0.3 mm
02:26 AM 55.6°F13.1°C 55.3°F12.9°C 99% 3.8 mph W6.1 kmh W 6.9 mph11.1 kmh 29.55 in1000.7 mb 0.00 in0.0 mm 0.00 in/hr0.0 mm/hr 0.01 in0.3 mm
02:25 AM 55.4°F13.0°C 55.1°F12.8°C 99% 4.1 mph W6.6 kmh W 6.9 mph11.1 kmh 29.55 in1000.7 mb 0.00 in0.0 mm 0.00 in/hr0.0 mm/hr 0.01 in0.3 mm
02:24 AM 55.8°F13.2°C 55.5°F13.1°C 99% 4.1 mph W6.6 kmh W 6.9 mph11.1 kmh 29.55 in1000.7 mb 0.00 in0.0 mm 0.00 in/hr0.0 mm/hr 0.01 in0.3 mm
02:23 AM 55.8°F13.2°C 55.5°F13.1°C 99% 4.2 mph W6.8 kmh W 6.9 mph11.1 kmh 29.55 in1000.7 mb 0.00 in0.0 mm 0.00 in/hr0.0 mm/hr 0.01 in0.3 mm
02:22 AM 54.7°F12.6°C 54.4°F12.4°C 99% 4.2 mph WSW6.8 kmh WSW 6.9 mph11.1 kmh 29.55 in1000.7 mb 0.00 in0.0 mm 0.00 in/hr0.0 mm/hr 0.01 in0.3 mm
02:21 AM 55.8°F13.2°C 55.5°F13.1°C 99% 4.1 mph WSW6.6 kmh WSW 6.9 mph11.1 kmh 29.54 in1000.3 mb 0.00 in0.0 mm 0.00 in/hr0.0 mm/hr 0.01 in0.3 mm
02:20 AM 55.4°F13.0°C 55.1°F12.8°C 99% 3.8 mph WSW6.1 kmh WSW 6.9 mph11.1 kmh 29.54 in1000.3 mb 0.00 in0.0 mm 0.00 in/hr0.0 mm/hr 0.01 in0.3 mm
02:19 AM 55.6°F13.1°C 55.3°F12.9°C 99% 3.4 mph WSW5.5 kmh WSW 6.9 mph11.1 kmh 29.53 in1000.0 mb 0.00 in0.0 mm 0.00 in/hr0.0 mm/hr 0.01 in0.3 mm
02:18 AM 55.8°F13.2°C 55.5°F13.1°C 99% 2.8 mph WSW4.5 kmh WSW 6.9 mph11.1 kmh 29.53 in1000.0 mb 0.00 in0.0 mm 0.00 in/hr0.0 mm/hr 0.01 in0.3 mm
02:17 AM 55.6°F13.1°C 55.3°F12.9°C 99% 2.2 mph SW3.5 kmh SW 5.4 mph8.7 kmh 29.53 in1000.0 mb 0.00 in0.0 mm 0.00 in/hr0.0 mm/hr 0.01 in0.3 mm
02:16 AM 55.4°F13.0°C 55.1°F12.8°C 99% 1.7 mph SW2.7 kmh SW 5.4 mph8.7 kmh 29.54 in1000.3 mb 0.00 in0.0 mm 0.00 in/hr0.0 mm/hr 0.01 in0.3 mm
02:15 AM 55.8°F13.2°C 55.5°F13.1°C 99% 1.2 mph SW1.9 kmh SW 5.4 mph8.7 kmh 29.54 in1000.3 mb 0.00 in0.0 mm 0.00 in/hr0.0 mm/hr 0.01 in0.3 mm
02:14 AM 55.6°F13.1°C 55.3°F12.9°C 99% 0.8 mph SW1.3 kmh SW 3.1 mph5.0 kmh 29.54 in1000.3 mb 0.00 in0.0 mm 0.00 in/hr0.0 mm/hr 0.01 in0.3 mm
02:13 AM 55.6°F13.1°C 55.3°F12.9°C 99% 0.5 mph SW0.8 kmh SW 3.1 mph5.0 kmh 29.55 in1000.7 mb 0.00 in0.0 mm 0.00 in/hr0.0 mm/hr 0.01 in0.3 mm
02:12 AM 55.9°F13.3°C 55.7°F13.2°C 99% 0.3 mph SW0.5 kmh SW 3.1 mph5.0 kmh 29.55 in1000.7 mb 0.00 in0.0 mm 0.00 in/hr0.0 mm/hr 0.01 in0.3 mm
02:11 AM 55.8°F13.2°C 55.5°F13.1°C 99% Calm Calm 1.6 mph2.6 kmh 29.56 in1001.0 mb 0.00 in0.0 mm 0.00 in/hr0.0 mm/hr 0.01 in0.3 mm
02:10 AM 55.6°F13.1°C 55.3°F12.9°C 99% Calm Calm -- 29.56 in1001.0 mb 0.00 in0.0 mm 0.00 in/hr0.0 mm/hr 0.01 in0.3 mm
02:09 AM 55.6°F13.1°C 55.3°F12.9°C 99% Calm Calm -- 29.56 in1001.0 mb 0.00 in0.0 mm 0.00 in/hr0.0 mm/hr 0.01 in0.3 mm
02:08 AM 55.4°F13.0°C 55.1°F12.8°C 99% Calm Calm -- 29.57 in1001.4 mb 0.00 in0.0 mm 0.00 in/hr0.0 mm/hr 0.01 in0.3 mm
02:07 AM 55.6°F13.1°C 55.3°F12.9°C 99% Calm Calm -- 29.57 in1001.4 mb 0.00 in0.0 mm 0.00 in/hr0.0 mm/hr 0.01 in0.3 mm
02:06 AM 55.4°F13.0°C 55.1°F12.8°C 99% Calm Calm -- 29.57 in1001.4 mb 0.00 in0.0 mm 0.00 in/hr0.0 mm/hr 0.01 in0.3 mm
02:05 AM 55.6°F13.1°C 55.3°F12.9°C 99% Calm Calm -- 29.57 in1001.4 mb 0.00 in0.0 mm 0.00 in/hr0.0 mm/hr 0.01 in0.3 mm
02:04 AM 55.6°F13.1°C 55.3°F12.9°C 99% Calm Calm -- 29.57 in1001.4 mb 0.00 in0.0 mm 0.00 in/hr0.0 mm/hr 0.01 in0.3 mm
02:03 AM 55.4°F13.0°C 55.1°F12.8°C 99% Calm Calm -- 29.57 in1001.4 mb 0.00 in0.0 mm 0.00 in/hr0.0 mm/hr 0.01 in0.3 mm
02:02 AM 55.8°F13.2°C 55.5°F13.1°C 99% Calm Calm -- 29.57 in1001.4 mb 0.00 in0.0 mm 0.00 in/hr0.0 mm/hr 0.01 in0.3 mm
02:01 AM 55.2°F12.9°C 55.0°F12.8°C 99% Calm Calm -- 29.57 in1001.4 mb 0.00 in0.0 mm 0.00 in/hr0.0 mm/hr 0.01 in0.3 mm
02:00 AM 55.8°F13.2°C 55.5°F13.1°C 99% Calm Calm -- 29.57 in1001.4 mb 0.00 in0.0 mm 0.00 in/hr0.0 mm/hr 0.01 in0.3 mm
01:59 AM 55.4°F13.0°C 55.1°F12.8°C 99% Calm Calm -- 29.57 in1001.4 mb 0.00 in0.0 mm 0.00 in/hr0.0 mm/hr 0.01 in0.3 mm
01:58 AM 55.6°F13.1°C 55.3°F12.9°C 99% Calm Calm -- 29.57 in1001.4 mb 0.00 in0.0 mm 0.00 in/hr0.0 mm/hr 0.01 in0.3 mm
01:57 AM 55.6°F13.1°C 55.3°F12.9°C 99% Calm Calm -- 29.57 in1001.4 mb 0.00 in0.0 mm 0.00 in/hr0.0 mm/hr 0.01 in0.3 mm
01:56 AM 55.6°F13.1°C 55.3°F12.9°C 99% Calm Calm -- 29.57 in1001.4 mb 0.00 in0.0 mm 0.00 in/hr0.0 mm/hr 0.01 in0.3 mm
01:55 AM 55.4°F13.0°C 55.1°F12.8°C 99% Calm Calm -- 29.57 in1001.4 mb 0.00 in0.0 mm 0.00 in/hr0.0 mm/hr 0.01 in0.3 mm
01:54 AM 55.8°F13.2°C 55.5°F13.1°C 99% Calm Calm -- 29.57 in1001.4 mb 0.00 in0.0 mm 0.00 in/hr0.0 mm/hr 0.01 in0.3 mm
01:53 AM 55.4°F13.0°C 55.1°F12.8°C 99% Calm Calm -- 29.57 in1001.4 mb 0.00 in0.0 mm 0.00 in/hr0.0 mm/hr 0.01 in0.3 mm
01:52 AM 55.4°F13.0°C 55.1°F12.8°C 99% Calm Calm -- 29.57 in1001.4 mb 0.00 in0.0 mm 0.00 in/hr0.0 mm/hr 0.01 in0.3 mm
01:51 AM 55.6°F13.1°C 55.3°F12.9°C 99% Calm Calm -- 29.57 in1001.4 mb 0.00 in0.0 mm 0.00 in/hr0.0 mm/hr 0.01 in0.3 mm
01:50 AM 55.8°F13.2°C 55.5°F13.1°C 99% Calm Calm -- 29.57 in1001.4 mb 0.00 in0.0 mm 0.00 in/hr0.0 mm/hr 0.01 in0.3 mm
01:49 AM 55.6°F13.1°C 55.3°F12.9°C 99% Calm Calm -- 29.57 in1001.4 mb 0.00 in0.0 mm 0.00 in/hr0.0 mm/hr 0.01 in0.3 mm
01:48 AM 55.8°F13.2°C 55.5°F13.1°C 99% Calm Calm -- 29.57 in1001.4 mb 0.00 in0.0 mm 0.00 in/hr0.0 mm/hr 0.01 in0.3 mm
01:47 AM 55.4°F13.0°C 55.1°F12.8°C 99% Calm Calm 0.7 mph1.1 kmh 29.57 in1001.4 mb 0.00 in0.0 mm 0.00 in/hr0.0 mm/hr 0.01 in0.3 mm
01:46 AM 54.9°F12.7°C 54.6°F12.6°C 99% Calm Calm 0.7 mph1.1 kmh 29.57 in1001.4 mb 0.00 in0.0 mm 0.00 in/hr0.0 mm/hr 0.01 in0.3 mm
01:45 AM 55.8°F13.2°C 55.5°F13.1°C 99% Calm Calm 0.7 mph1.1 kmh 29.57 in1001.4 mb 0.00 in0.0 mm 0.00 in/hr0.0 mm/hr 0.01 in0.3 mm
01:44 AM 55.6°F13.1°C 55.3°F12.9°C 99% Calm Calm 0.7 mph1.1 kmh 29.57 in1001.4 mb 0.00 in0.0 mm 0.00 in/hr0.0 mm/hr 0.01 in0.3 mm
01:43 AM 55.8°F13.2°C 55.5°F13.1°C 99% Calm Calm 0.7 mph1.1 kmh 29.57 in1001.4 mb 0.00 in0.0 mm 0.00 in/hr0.0 mm/hr 0.01 in0.3 mm
01:42 AM 55.8°F13.2°C 55.5°F13.1°C 99% Calm Calm 0.7 mph1.1 kmh 29.57 in1001.4 mb 0.00 in0.0 mm 0.00 in/hr0.0 mm/hr 0.01 in0.3 mm
01:41 AM 55.6°F13.1°C 55.3°F12.9°C 99% Calm Calm 0.7 mph1.1 kmh 29.56 in1001.0 mb 0.00 in0.0 mm 0.00 in/hr0.0 mm/hr 0.01 in0.3 mm
01:40 AM 55.6°F13.1°C 55.3°F12.9°C 99% Calm Calm 0.7 mph1.1 kmh 29.57 in1001.4 mb 0.00 in0.0 mm 0.00 in/hr0.0 mm/hr 0.01 in0.3 mm
01:39 AM 55.8°F13.2°C 55.5°F13.1°C 99% 0.2 mph ESE0.3 kmh ESE 2.2 mph3.5 kmh 29.57 in1001.4 mb 0.00 in0.0 mm 0.00 in/hr0.0 mm/hr 0.01 in0.3 mm
01:38 AM 55.4°F13.0°C 55.1°F12.8°C 99% 0.4 mph ESE0.6 kmh ESE 2.2 mph3.5 kmh 29.57 in1001.4 mb 0.00 in0.0 mm 0.00 in/hr0.0 mm/hr 0.01 in0.3 mm
01:37 AM 55.8°F13.2°C 55.5°F13.1°C 99% 0.3 mph ESE0.5 kmh ESE 2.2 mph3.5 kmh 29.57 in1001.4 mb 0.00 in0.0 mm 0.00 in/hr0.0 mm/hr 0.01 in0.3 mm
01:36 AM 55.6°F13.1°C 55.3°F12.9°C 99% 0.3 mph ESE0.5 kmh ESE 2.2 mph3.5 kmh 29.57 in1001.4 mb 0.00 in0.0 mm 0.00 in/hr0.0 mm/hr 0.01 in0.3 mm
01:35 AM 55.6°F13.1°C 55.3°F12.9°C 99% 0.3 mph ESE0.5 kmh ESE 2.2 mph3.5 kmh 29.57 in1001.4 mb 0.00 in0.0 mm 0.00 in/hr0.0 mm/hr 0.01 in0.3 mm
01:34 AM 55.6°F13.1°C 55.3°F12.9°C 99% 0.3 mph ESE0.5 kmh ESE 2.2 mph3.5 kmh 29.57 in1001.4 mb 0.00 in0.0 mm 0.00 in/hr0.0 mm/hr 0.01 in0.3 mm
01:33 AM 55.6°F13.1°C 55.3°F12.9°C 99% 0.3 mph ESE0.5 kmh ESE 2.2 mph3.5 kmh 29.57 in1001.4 mb 0.00 in0.0 mm 0.00 in/hr0.0 mm/hr 0.01 in0.3 mm
01:32 AM 55.6°F13.1°C 55.3°F12.9°C 99% 0.3 mph ESE0.5 kmh ESE 2.2 mph3.5 kmh 29.57 in1001.4 mb 0.00 in0.0 mm 0.00 in/hr0.0 mm/hr 0.01 in0.3 mm
01:31 AM 55.6°F13.1°C 55.3°F12.9°C 99% 0.3 mph ESE0.5 kmh ESE 2.2 mph3.5 kmh 29.57 in1001.4 mb 0.00 in0.0 mm 0.00 in/hr0.0 mm/hr 0.01 in0.3 mm
01:30 AM 55.8°F13.2°C 55.5°F13.1°C 99% 0.3 mph ESE0.5 kmh ESE 2.2 mph3.5 kmh 29.57 in1001.4 mb 0.00 in0.0 mm 0.00 in/hr0.0 mm/hr 0.01 in0.3 mm
01:29 AM 55.8°F13.2°C 55.5°F13.1°C 99% 0.1 mph ESE0.2 kmh ESE 2.2 mph3.5 kmh 29.57 in1001.4 mb 0.00 in0.0 mm 0.00 in/hr0.0 mm/hr 0.01 in0.3 mm
01:28 AM 55.8°F13.2°C 55.5°F13.1°C 99% Calm Calm -- 29.57 in1001.4 mb 0.00 in0.0 mm 0.00 in/hr0.0 mm/hr 0.01 in0.3 mm
01:27 AM 55.2°F12.9°C 55.0°F12.8°C 99% Calm Calm -- 29.57 in1001.4 mb 0.00 in0.0 mm 0.00 in/hr0.0 mm/hr 0.01 in0.3 mm
01:26 AM 55.9°F13.3°C 55.7°F13.2°C 99% Calm Calm -- 29.57 in1001.4 mb 0.00 in0.0 mm 0.00 in/hr0.0 mm/hr 0.01 in0.3 mm
01:25 AM 55.8°F13.2°C 55.5°F13.1°C 99% Calm Calm -- 29.57 in1001.4 mb 0.00 in0.0 mm 0.00 in/hr0.0 mm/hr 0.01 in0.3 mm
01:24 AM 55.6°F13.1°C 55.3°F12.9°C 99% Calm Calm -- 29.57 in1001.4 mb 0.00 in0.0 mm 0.00 in/hr0.0 mm/hr 0.01 in0.3 mm
01:23 AM 55.9°F13.3°C 55.7°F13.2°C 99% Calm Calm -- 29.57 in1001.4 mb 0.00 in0.0 mm 0.00 in/hr0.0 mm/hr 0.01 in0.3 mm
01:22 AM 55.8°F13.2°C 55.5°F13.1°C 99% Calm Calm -- 29.57 in1001.4 mb 0.00 in0.0 mm 0.00 in/hr0.0 mm/hr 0.01 in0.3 mm
01:21 AM 55.6°F13.1°C 55.3°F12.9°C 99% Calm Calm -- 29.57 in1001.4 mb 0.00 in0.0 mm 0.00 in/hr0.0 mm/hr 0.01 in0.3 mm
01:20 AM 55.8°F13.2°C 55.5°F13.1°C 99% Calm Calm -- 29.57 in1001.4 mb 0.00 in0.0 mm 0.00 in/hr0.0 mm/hr 0.01 in0.3 mm
01:19 AM 55.6°F13.1°C 55.3°F12.9°C 99% Calm Calm -- 29.57 in1001.4 mb 0.00 in0.0 mm 0.00 in/hr0.0 mm/hr 0.01 in0.3 mm
01:18 AM 55.4°F13.0°C 55.1°F12.8°C 99% Calm Calm -- 29.57 in1001.4 mb 0.00 in0.0 mm 0.00 in/hr0.0 mm/hr 0.01 in0.3 mm
01:17 AM 55.6°F13.1°C 55.3°F12.9°C 99% Calm Calm -- 29.57 in1001.4 mb 0.00 in0.0 mm 0.00 in/hr0.0 mm/hr 0.01 in0.3 mm
01:16 AM 55.6°F13.1°C 55.3°F12.9°C 99% Calm Calm -- 29.57 in1001.4 mb 0.00 in0.0 mm 0.00 in/hr0.0 mm/hr 0.01 in0.3 mm
01:15 AM 55.9°F13.3°C 55.7°F13.2°C 99% Calm Calm -- 29.57 in1001.4 mb 0.00 in0.0 mm 0.00 in/hr0.0 mm/hr 0.01 in0.3 mm
01:14 AM 55.6°F13.1°C 55.3°F12.9°C 99% Calm Calm -- 29.57 in1001.4 mb 0.00 in0.0 mm 0.00 in/hr0.0 mm/hr 0.01 in0.3 mm
01:13 AM 55.8°F13.2°C 55.5°F13.1°C 99% Calm Calm -- 29.57 in1001.4 mb 0.00 in0.0 mm 0.00 in/hr0.0 mm/hr 0.01 in0.3 mm
01:12 AM 55.8°F13.2°C 55.5°F13.1°C 99% Calm Calm -- 29.57 in1001.4 mb 0.00 in0.0 mm 0.00 in/hr0.0 mm/hr 0.01 in0.3 mm
01:11 AM 55.2°F12.9°C 55.0°F12.8°C 99% Calm Calm -- 29.57 in1001.4 mb 0.00 in0.0 mm 0.00 in/hr0.0 mm/hr 0.01 in0.3 mm
01:10 AM 55.9°F13.3°C 55.7°F13.2°C 99% Calm Calm -- 29.57 in1001.4 mb 0.00 in0.0 mm 0.00 in/hr0.0 mm/hr 0.01 in0.3 mm
01:09 AM 55.9°F13.3°C 55.7°F13.2°C 99% Calm Calm -- 29.57 in1001.4 mb 0.00 in0.0 mm 0.00 in/hr0.0 mm/hr 0.01 in0.3 mm
01:08 AM 55.9°F13.3°C 55.7°F13.2°C 99% Calm Calm -- 29.57 in1001.4 mb 0.00 in0.0 mm 0.00 in/hr0.0 mm/hr 0.01 in0.3 mm
01:07 AM 55.9°F13.3°C 55.7°F13.2°C 99% Calm Calm -- 29.57 in1001.4 mb 0.00 in0.0 mm 0.00 in/hr0.0 mm/hr 0.01 in0.3 mm
01:06 AM 56.3°F13.5°C 56.0°F13.3°C 99% Calm Calm -- 29.57 in1001.4 mb 0.00 in0.0 mm 0.00 in/hr0.0 mm/hr 0.01 in0.3 mm
01:05 AM 55.8°F13.2°C 55.5°F13.1°C 99% Calm Calm -- 29.58 in1001.7 mb 0.00 in0.0 mm 0.00 in/hr0.0 mm/hr 0.01 in0.3 mm
01:04 AM 55.9°F13.3°C 55.7°F13.2°C 99% Calm Calm -- 29.58 in1001.7 mb 0.00 in0.0 mm 0.00 in/hr0.0 mm/hr 0.01 in0.3 mm
01:03 AM 55.9°F13.3°C 55.7°F13.2°C 99% Calm Calm -- 29.58 in1001.7 mb 0.00 in0.0 mm 0.00 in/hr0.0 mm/hr 0.01 in0.3 mm
01:02 AM 55.6°F13.1°C 55.3°F12.9°C 99% Calm Calm -- 29.58 in1001.7 mb 0.00 in0.0 mm 0.00 in/hr0.0 mm/hr 0.01 in0.3 mm
01:01 AM 55.9°F13.3°C 55.7°F13.2°C 99% Calm Calm -- 29.58 in1001.7 mb 0.00 in0.0 mm 0.00 in/hr0.0 mm/hr 0.01 in0.3 mm
01:00 AM 55.4°F13.0°C 55.1°F12.8°C 99% Calm Calm -- 29.58 in1001.7 mb 0.00 in0.0 mm 0.00 in/hr0.0 mm/hr 0.01 in0.3 mm
12:59 AM 55.9°F13.3°C 55.7°F13.2°C 99% Calm Calm -- 29.58 in1001.7 mb 0.00 in0.0 mm 0.00 in/hr0.0 mm/hr 0.01 in0.3 mm
12:58 AM 55.6°F13.1°C 55.3°F12.9°C 99% Calm Calm -- 29.58 in1001.7 mb 0.00 in0.0 mm 0.00 in/hr0.0 mm/hr 0.01 in0.3 mm
12:57 AM 56.1°F13.4°C 55.9°F13.3°C 99% Calm Calm -- 29.58 in1001.7 mb 0.00 in0.0 mm 0.00 in/hr0.0 mm/hr 0.01 in0.3 mm
12:56 AM 55.9°F13.3°C 55.7°F13.2°C 99% Calm Calm -- 29.58 in1001.7 mb 0.00 in0.0 mm 0.00 in/hr0.0 mm/hr 0.01 in0.3 mm
12:55 AM 55.9°F13.3°C 55.7°F13.2°C 99% Calm Calm -- 29.58 in1001.7 mb 0.00 in0.0 mm 0.00 in/hr0.0 mm/hr 0.01 in0.3 mm
12:54 AM 55.9°F13.3°C 55.7°F13.2°C 99% Calm Calm -- 29.58 in1001.7 mb 0.00 in0.0 mm 0.00 in/hr0.0 mm/hr 0.01 in0.3 mm
12:53 AM 55.8°F13.2°C 55.5°F13.1°C 99% Calm Calm -- 29.58 in1001.7 mb 0.00 in0.0 mm 0.00 in/hr0.0 mm/hr 0.01 in0.3 mm
12:52 AM 56.3°F13.5°C 56.0°F13.3°C 99% Calm Calm -- 29.59 in1002.0 mb 0.00 in0.0 mm 0.00 in/hr0.0 mm/hr 0.01 in0.3 mm
12:51 AM 56.1°F13.4°C 55.9°F13.3°C 99% Calm Calm -- 29.59 in1002.0 mb 0.00 in0.0 mm 0.00 in/hr0.0 mm/hr 0.01 in0.3 mm
12:50 AM 56.1°F13.4°C 55.9°F13.3°C 99% Calm Calm -- 29.58 in1001.7 mb 0.00 in0.0 mm 0.00 in/hr0.0 mm/hr 0.01 in0.3 mm
12:49 AM 55.9°F13.3°C 55.7°F13.2°C 99% Calm Calm -- 29.58 in1001.7 mb 0.01 in0.3 mm 0.00 in/hr0.0 mm/hr 0.01 in0.3 mm
12:48 AM 55.9°F13.3°C 55.7°F13.2°C 99% Calm Calm -- 29.58 in1001.7 mb 0.01 in0.3 mm 0.00 in/hr0.0 mm/hr 0.01 in0.3 mm
12:47 AM 55.9°F13.3°C 55.7°F13.2°C 99% Calm Calm -- 29.58 in1001.7 mb 0.01 in0.3 mm 0.00 in/hr0.0 mm/hr 0.01 in0.3 mm
12:46 AM 56.1°F13.4°C 55.9°F13.3°C 99% Calm Calm -- 29.58 in1001.7 mb 0.01 in0.3 mm 0.00 in/hr0.0 mm/hr 0.01 in0.3 mm
12:45 AM 55.8°F13.2°C 55.5°F13.1°C 99% Calm Calm -- 29.58 in1001.7 mb 0.01 in0.3 mm 0.00 in/hr0.0 mm/hr 0.01 in0.3 mm
12:44 AM 56.1°F13.4°C 55.9°F13.3°C 99% Calm Calm -- 29.58 in1001.7 mb 0.01 in0.3 mm 0.00 in/hr0.0 mm/hr 0.01 in0.3 mm
12:43 AM 56.1°F13.4°C 55.9°F13.3°C 99% Calm Calm -- 29.58 in1001.7 mb 0.01 in0.3 mm 0.00 in/hr0.0 mm/hr 0.01 in0.3 mm
12:42 AM 56.1°F13.4°C 55.9°F13.3°C 99% Calm Calm -- 29.58 in1001.7 mb 0.01 in0.3 mm 0.00 in/hr0.0 mm/hr 0.01 in0.3 mm
12:41 AM 56.1°F13.4°C 55.9°F13.3°C 99% Calm Calm -- 29.58 in1001.7 mb 0.01 in0.3 mm 0.00 in/hr0.0 mm/hr 0.01 in0.3 mm
12:40 AM 56.3°F13.5°C 56.0°F13.3°C 99% Calm Calm -- 29.58 in1001.7 mb 0.01 in0.3 mm 0.00 in/hr0.0 mm/hr 0.01 in0.3 mm
12:39 AM 56.1°F13.4°C 55.9°F13.3°C 99% Calm Calm -- 29.59 in1002.0 mb 0.01 in0.3 mm 0.00 in/hr0.0 mm/hr 0.01 in0.3 mm
12:38 AM 55.9°F13.3°C 55.7°F13.2°C 99% Calm Calm -- 29.59 in1002.0 mb 0.01 in0.3 mm 0.00 in/hr0.0 mm/hr 0.01 in0.3 mm
12:37 AM 56.5°F13.6°C 56.2°F13.4°C 99% Calm Calm -- 29.58 in1001.7 mb 0.01 in0.3 mm 0.00 in/hr0.0 mm/hr 0.01 in0.3 mm
12:36 AM 56.3°F13.5°C 56.0°F13.3°C 99% Calm Calm -- 29.59 in1002.0 mb 0.01 in0.3 mm 0.00 in/hr0.0 mm/hr 0.01 in0.3 mm
12:35 AM 56.3°F13.5°C 56.0°F13.3°C 99% 0.2 mph SW0.3 kmh SW 2.2 mph3.5 kmh 29.59 in1002.0 mb 0.01 in0.3 mm 0.00 in/hr0.0 mm/hr 0.01 in0.3 mm
12:34 AM 56.3°F13.5°C 56.0°F13.3°C 99% 0.5 mph W0.8 kmh W 3.8 mph6.1 kmh 29.59 in1002.0 mb 0.01 in0.3 mm 0.00 in/hr0.0 mm/hr 0.01 in0.3 mm
12:33 AM 56.3°F13.5°C 56.0°F13.3°C 99% 0.5 mph W0.8 kmh W 3.8 mph6.1 kmh 29.59 in1002.0 mb 0.01 in0.3 mm 0.00 in/hr0.0 mm/hr 0.01 in0.3 mm
12:32 AM 56.1°F13.4°C 55.9°F13.3°C 99% 0.8 mph W1.3 kmh W 4.5 mph7.2 kmh 29.59 in1002.0 mb 0.01 in0.3 mm 0.00 in/hr0.0 mm/hr 0.01 in0.3 mm
12:31 AM 56.3°F13.5°C 56.0°F13.3°C 99% 1.3 mph W2.1 kmh W 5.4 mph8.7 kmh 29.59 in1002.0 mb 0.01 in0.3 mm 0.00 in/hr0.0 mm/hr 0.01 in0.3 mm
12:30 AM 56.5°F13.6°C 56.2°F13.4°C 99% 2.0 mph WNW3.2 kmh WNW 8.3 mph13.4 kmh 29.59 in1002.0 mb 0.01 in0.3 mm 0.00 in/hr0.0 mm/hr 0.01 in0.3 mm
12:29 AM 56.5°F13.6°C 56.2°F13.4°C 99% 2.5 mph WNW4.0 kmh WNW 8.3 mph13.4 kmh 29.59 in1002.0 mb 0.01 in0.3 mm 0.00 in/hr0.0 mm/hr 0.01 in0.3 mm
12:28 AM 56.3°F13.5°C 56.0°F13.3°C 99% 3.1 mph WNW5.0 kmh WNW 8.3 mph13.4 kmh 29.59 in1002.0 mb 0.01 in0.3 mm 0.00 in/hr0.0 mm/hr 0.01 in0.3 mm
12:27 AM 56.1°F13.4°C 55.9°F13.3°C 99% 3.2 mph WNW5.1 kmh WNW 8.3 mph13.4 kmh 29.59 in1002.0 mb 0.01 in0.3 mm 0.00 in/hr0.0 mm/hr 0.01 in0.3 mm
12:26 AM 56.1°F13.4°C 55.9°F13.3°C 99% 3.2 mph WNW5.1 kmh WNW 8.3 mph13.4 kmh 29.59 in1002.0 mb 0.01 in0.3 mm 0.00 in/hr0.0 mm/hr 0.01 in0.3 mm
12:25 AM 56.3°F13.5°C 56.0°F13.3°C 99% 3.0 mph NW4.8 kmh NW 8.3 mph13.4 kmh 29.59 in1002.0 mb 0.01 in0.3 mm 0.00 in/hr0.0 mm/hr 0.01 in0.3 mm
12:24 AM 56.1°F13.4°C 55.9°F13.3°C 99% 2.7 mph WNW4.3 kmh WNW 8.3 mph13.4 kmh 29.59 in1002.0 mb 0.01 in0.3 mm 0.00 in/hr0.0 mm/hr 0.01 in0.3 mm
12:23 AM 56.7°F13.7°C 56.4°F13.6°C 99% 2.7 mph WNW4.3 kmh WNW 8.3 mph13.4 kmh 29.59 in1002.0 mb 0.01 in0.3 mm 0.00 in/hr0.0 mm/hr 0.01 in0.3 mm
12:22 AM 56.1°F13.4°C 55.9°F13.3°C 99% 2.5 mph NW4.0 kmh NW 8.3 mph13.4 kmh 29.59 in1002.0 mb 0.01 in0.3 mm 0.00 in/hr0.0 mm/hr 0.01 in0.3 mm
12:21 AM 55.9°F13.3°C 55.7°F13.2°C 99% 1.9 mph NW3.1 kmh NW 8.3 mph13.4 kmh 29.59 in1002.0 mb 0.01 in0.3 mm 0.00 in/hr0.0 mm/hr 0.01 in0.3 mm
12:20 AM 56.1°F13.4°C 55.9°F13.3°C 99% 1.2 mph NW1.9 kmh NW 6.0 mph9.7 kmh 29.59 in1002.0 mb 0.01 in0.3 mm 0.00 in/hr0.0 mm/hr 0.01 in0.3 mm
12:19 AM 55.8°F13.2°C 55.5°F13.1°C 99% 0.7 mph NW1.1 kmh NW 6.0 mph9.7 kmh 29.59 in1002.0 mb 0.01 in0.3 mm 0.00 in/hr0.0 mm/hr 0.01 in0.3 mm
12:18 AM 56.3°F13.5°C 56.0°F13.3°C 99% 0.1 mph NW0.2 kmh NW 6.0 mph9.7 kmh 29.59 in1002.0 mb 0.01 in0.3 mm 0.00 in/hr0.0 mm/hr 0.01 in0.3 mm
12:17 AM 55.8°F13.2°C 55.5°F13.1°C 99% Calm Calm -- 29.59 in1002.0 mb 0.01 in0.3 mm 0.00 in/hr0.0 mm/hr 0.01 in0.3 mm
12:16 AM 55.9°F13.3°C 55.7°F13.2°C 99% Calm Calm -- 29.59 in1002.0 mb 0.01 in0.3 mm 0.00 in/hr0.0 mm/hr 0.01 in0.3 mm
12:15 AM 56.1°F13.4°C 55.9°F13.3°C 99% Calm Calm -- 29.59 in1002.0 mb 0.01 in0.3 mm 0.00 in/hr0.0 mm/hr 0.01 in0.3 mm
12:14 AM 56.1°F13.4°C 55.9°F13.3°C 99% Calm Calm -- 29.59 in1002.0 mb 0.01 in0.3 mm 0.00 in/hr0.0 mm/hr 0.01 in0.3 mm
12:13 AM 55.9°F13.3°C 55.7°F13.2°C 99% Calm Calm -- 29.59 in1002.0 mb 0.01 in0.3 mm 0.00 in/hr0.0 mm/hr 0.01 in0.3 mm
12:12 AM 56.1°F13.4°C 55.9°F13.3°C 99% Calm Calm -- 29.59 in1002.0 mb 0.01 in0.3 mm 0.00 in/hr0.0 mm/hr 0.01 in0.3 mm
12:11 AM 55.8°F13.2°C 55.5°F13.1°C 99% Calm Calm -- 29.59 in1002.0 mb 0.01 in0.3 mm 0.00 in/hr0.0 mm/hr 0.01 in0.3 mm
12:10 AM 55.9°F13.3°C 55.7°F13.2°C 99% Calm Calm -- 29.59 in1002.0 mb 0.01 in0.3 mm 0.00 in/hr0.0 mm/hr 0.01 in0.3 mm
12:09 AM 56.1°F13.4°C 55.9°F13.3°C 99% Calm Calm -- 29.59 in1002.0 mb 0.01 in0.3 mm 0.00 in/hr0.0 mm/hr 0.01 in0.3 mm
12:08 AM 55.9°F13.3°C 55.7°F13.2°C 99% Calm Calm -- 29.59 in1002.0 mb 0.01 in0.3 mm 0.00 in/hr0.0 mm/hr 0.01 in0.3 mm
12:07 AM 55.8°F13.2°C 55.5°F13.1°C 99% Calm Calm -- 29.60 in1002.4 mb 0.01 in0.3 mm 0.00 in/hr0.0 mm/hr 0.01 in0.3 mm
12:06 AM 55.6°F13.1°C 55.3°F12.9°C 99% Calm Calm -- 29.60 in1002.4 mb 0.01 in0.3 mm 0.00 in/hr0.0 mm/hr 0.01 in0.3 mm
12:05 AM 55.8°F13.2°C 55.5°F13.1°C 99% Calm Calm -- 29.60 in1002.4 mb 0.01 in0.3 mm 0.00 in/hr0.0 mm/hr 0.01 in0.3 mm
12:04 AM 55.9°F13.3°C 55.7°F13.2°C 99% Calm Calm -- 29.60 in1002.4 mb 0.01 in0.3 mm 0.00 in/hr0.0 mm/hr 0.01 in0.3 mm
12:03 AM 55.9°F13.3°C 55.7°F13.2°C 99% Calm Calm -- 29.60 in1002.4 mb 0.01 in0.3 mm 0.00 in/hr0.0 mm/hr 0.01 in0.3 mm
12:02 AM 55.8°F13.2°C 55.5°F13.1°C 99% Calm Calm -- 29.60 in1002.4 mb 0.01 in0.3 mm 0.00 in/hr0.0 mm/hr 0.01 in0.3 mm
12:01 AM 55.9°F13.3°C 55.7°F13.2°C 99% Calm Calm -- 29.60 in1002.4 mb 0.01 in0.3 mm 0.00 in/hr0.0 mm/hr 0.01 in0.3 mm
12:00 AM 55.9°F13.3°C 55.7°F13.2°C 99% Calm Calm -- 29.60 in1002.4 mb 0.01 in0.3 mm 0.00 in/hr0.0 mm/hr 0.01 in0.3 mm